Darstellungsparameter: Aktuell verwendete Einstellungen:
Skalierung der Graphiken ... ?
xyx+y,   Skalierungsfaktor:      Skalierung: Modus: x, Faktor: 1
Darstellungszeitraum ... ?
Vom - - bis: - -   Zeitraum: 10.06.2021 - 16.06.2021
Min/Max/Avg-Anzeige ... ?
Zeige MMA aktuell
Zeige MMA Monat
Zeige MMA alles
Zeige --A aktuell
Zeige --A Monat
Zeige --A alles
Keine MMA-Anzeige
MMA:
Keine MMA-Graphiken
MMA-Basis: 10.06.2021 - 16.06.2021
Quicknavigation für Darstellung... ?
Tage:      1T, 2T, 3T, 5T -1T -2T -3T -5T +1T +2T +3T +5T
Wochen: 1W, 2W, 3W -1W -2W -3W +1W +2W +3W
Monate: 1M, 3M, 6M -1M -3M -6M +1M +3M +6M
Jahre:    1J, 3J, 5J, 10J -1J -3J -5J -10J +1J +3J +5J +10J
Nutze für die Darstellung ... ?
Originaldaten oder Mittelwerte auf ...
Stundenbasis Tagesbasis Wochenbasis
Monatsbasis Jahresbasis      Datenbasis: Original-Daten
Darstellen als:
Statistik (Auto) Statistik J:M      Darstellung:
Zur Graphik,    zurück zur Übersicht aller Sensoren.
 
Tabellarische Datenbersicht: ?
 
Sensor: Nr:Datum:Temp:Feuchte:Taupunkt:
Aussen-T/F 1 10-06-2021 00:00:00 17.1 C 87 % 14.92 C
2 10-06-2021 00:05:00 17 C 87 % 14.82 C
3 10-06-2021 00:10:00 16.9 C 87 % 14.72 C
4 10-06-2021 00:15:00 16.9 C 88 % 14.9 C
5 10-06-2021 00:20:00 16.8 C 88 % 14.8 C
6 10-06-2021 00:25:00 16.8 C 88 % 14.8 C
7 10-06-2021 00:30:00 16.7 C 88 % 14.7 C
8 10-06-2021 00:35:00 16.7 C 88 % 14.7 C
9 10-06-2021 00:40:00 16.7 C 89 % 14.88 C
10 10-06-2021 00:45:00 16.6 C 89 % 14.78 C
11 10-06-2021 00:50:00 16.5 C 89 % 14.68 C
12 10-06-2021 00:55:00 16.4 C 89 % 14.58 C
13 10-06-2021 01:00:00 16.4 C 89 % 14.58 C
14 10-06-2021 01:05:00 16.3 C 90 % 14.66 C
15 10-06-2021 01:10:00 16.3 C 90 % 14.66 C
16 10-06-2021 01:15:00 16.3 C 90 % 14.66 C
17 10-06-2021 01:20:00 16.2 C 90 % 14.56 C
18 10-06-2021 01:25:00 16.2 C 90 % 14.56 C
19 10-06-2021 01:30:00 16.1 C 90 % 14.46 C
20 10-06-2021 01:35:00 16.1 C 90 % 14.46 C
21 10-06-2021 01:40:00 16 C 91 % 14.53 C
22 10-06-2021 01:45:00 16 C 91 % 14.53 C
23 10-06-2021 01:50:00 15.9 C 91 % 14.43 C
24 10-06-2021 01:55:00 15.9 C 91 % 14.43 C
25 10-06-2021 02:00:00 15.8 C 91 % 14.33 C
Sensor: Nr:Datum:Temp:Feuchte:Taupunkt:
Aussen-T/F 26 10-06-2021 02:05:00 15.8 C 91 % 14.33 C
27 10-06-2021 02:10:00 15.7 C 91 % 14.24 C
28 10-06-2021 02:15:00 15.6 C 91 % 14.14 C
29 10-06-2021 02:20:00 15.6 C 91 % 14.14 C
30 10-06-2021 02:25:00 15.6 C 91 % 14.14 C
31 10-06-2021 02:30:00 15.5 C 92 % 14.21 C
32 10-06-2021 02:35:00 15.5 C 92 % 14.21 C
33 10-06-2021 02:40:00 15.4 C 92 % 14.11 C
34 10-06-2021 02:45:00 15.4 C 92 % 14.11 C
35 10-06-2021 02:50:00 15.4 C 92 % 14.11 C
36 10-06-2021 02:55:00 15.3 C 92 % 14.01 C
37 10-06-2021 03:00:00 15.3 C 92 % 14.01 C
38 10-06-2021 03:05:00 15.2 C 92 % 13.91 C
39 10-06-2021 03:10:00 15.2 C 92 % 13.91 C
40 10-06-2021 03:15:00 15.2 C 92 % 13.91 C
41 10-06-2021 03:20:00 15.1 C 93 % 13.98 C
42 10-06-2021 03:25:00 15.1 C 93 % 13.98 C
43 10-06-2021 03:30:00 15 C 92 % 13.71 C
44 10-06-2021 03:35:00 14.9 C 93 % 13.78 C
45 10-06-2021 03:40:00 14.8 C 93 % 13.68 C
46 10-06-2021 03:45:00 14.8 C 93 % 13.68 C
47 10-06-2021 03:50:00 14.7 C 93 % 13.58 C
48 10-06-2021 03:55:00 14.7 C 93 % 13.58 C
49 10-06-2021 04:00:00 14.6 C 93 % 13.48 C
50 10-06-2021 04:05:00 14.5 C 93 % 13.38 C
Sensor: Nr:Datum:Temp:Feuchte:Taupunkt:
Aussen-T/F 51 10-06-2021 04:10:00 14.4 C 93 % 13.28 C
52 10-06-2021 04:15:00 14.4 C 93 % 13.28 C
53 10-06-2021 04:20:00 14.4 C 93 % 13.28 C
54 10-06-2021 04:25:00 14.3 C 93 % 13.18 C
55 10-06-2021 04:30:00 14.3 C 93 % 13.18 C
56 10-06-2021 04:35:00 14.2 C 93 % 13.08 C
57 10-06-2021 04:40:00 14.2 C 93 % 13.08 C
58 10-06-2021 04:45:00 14.1 C 94 % 13.15 C
59 10-06-2021 04:50:00 14.1 C 94 % 13.15 C
60 10-06-2021 04:55:00 14 C 94 % 13.05 C
61 10-06-2021 05:00:00 13.9 C 94 % 12.95 C
62 10-06-2021 05:05:00 13.9 C 94 % 12.95 C
63 10-06-2021 05:10:00 13.8 C 94 % 12.85 C
64 10-06-2021 05:15:00 13.8 C 94 % 12.85 C
65 10-06-2021 05:20:00 13.8 C 94 % 12.85 C
66 10-06-2021 05:25:00 13.7 C 94 % 12.75 C
67 10-06-2021 05:30:00 13.7 C 94 % 12.75 C
68 10-06-2021 05:35:00 13.6 C 94 % 12.65 C
69 10-06-2021 05:40:00 13.6 C 94 % 12.65 C
70 10-06-2021 05:45:00 13.6 C 94 % 12.65 C
71 10-06-2021 05:50:00 13.6 C 95 % 12.81 C
72 10-06-2021 05:55:00 13.6 C 95 % 12.81 C
73 10-06-2021 06:00:00 13.6 C 95 % 12.81 C
74 10-06-2021 06:05:00 13.7 C 95 % 12.91 C
75 10-06-2021 06:10:00 13.6 C 95 % 12.81 C
Sensor: Nr:Datum:Temp:Feuchte:Taupunkt:
Aussen-T/F 76 10-06-2021 06:15:00 13.7 C 95 % 12.91 C
77 10-06-2021 06:20:00 13.7 C 95 % 12.91 C
78 10-06-2021 06:25:00 13.7 C 95 % 12.91 C
79 10-06-2021 06:30:00 13.7 C 95 % 12.91 C
80 10-06-2021 06:35:00 13.8 C 95 % 13.01 C
81 10-06-2021 06:40:00 13.8 C 95 % 13.01 C
82 10-06-2021 06:45:00 13.8 C 95 % 13.01 C
83 10-06-2021 06:50:00 13.8 C 95 % 13.01 C
84 10-06-2021 06:55:00 13.8 C 95 % 13.01 C
85 10-06-2021 07:00:00 13.9 C 95 % 13.11 C
86 10-06-2021 07:05:00 13.9 C 95 % 13.11 C
87 10-06-2021 07:10:00 14 C 95 % 13.21 C
88 10-06-2021 07:15:00 14.1 C 95 % 13.31 C
89 10-06-2021 07:20:00 14.2 C 95 % 13.41 C
90 10-06-2021 07:25:00 14.2 C 95 % 13.41 C
91 10-06-2021 07:30:00 14.3 C 95 % 13.51 C
92 10-06-2021 07:35:00 14.3 C 95 % 13.51 C
93 10-06-2021 07:40:00 14.4 C 95 % 13.61 C
94 10-06-2021 07:45:00 14.6 C 95 % 13.81 C
95 10-06-2021 07:50:00 14.7 C 95 % 13.91 C
96 10-06-2021 07:55:00 14.7 C 95 % 13.91 C
97 10-06-2021 08:00:00 14.8 C 95 % 14.01 C
98 10-06-2021 08:05:00 15 C 95 % 14.21 C
99 10-06-2021 08:10:00 15.1 C 95 % 14.31 C
100 10-06-2021 08:15:00 15.2 C 95 % 14.4 C
Sensor: Nr:Datum:Temp:Feuchte:Taupunkt:
Aussen-T/F 101 10-06-2021 08:20:00 15.3 C 95 % 14.5 C
102 10-06-2021 08:25:00 15.4 C 94 % 14.44 C
103 10-06-2021 08:30:00 15.6 C 93 % 14.47 C
104 10-06-2021 08:35:00 15.8 C 93 % 14.67 C
105 10-06-2021 08:40:00 16 C 92 % 14.7 C
106 10-06-2021 08:45:00 16.2 C 92 % 14.9 C
107 10-06-2021 08:50:00 16.3 C 92 % 15 C
108 10-06-2021 08:55:00 16.6 C 90 % 14.95 C
109 10-06-2021 09:00:00 16.8 C 90 % 15.15 C
110 10-06-2021 09:05:00 16.9 C 89 % 15.08 C
111 10-06-2021 09:10:00 17.2 C 87 % 15.02 C
112 10-06-2021 09:15:00 17.4 C 85 % 14.85 C
113 10-06-2021 09:20:00 17.7 C 83 % 14.78 C
114 10-06-2021 09:25:00 17.9 C 80 % 14.4 C
115 10-06-2021 09:30:00 18.2 C 81 % 14.89 C
116 10-06-2021 09:35:00 18.4 C 80 % 14.89 C
117 10-06-2021 09:40:00 18.7 C 80 % 15.18 C
118 10-06-2021 09:45:00 18.9 C 79 % 15.18 C
119 10-06-2021 09:50:00 19.1 C 79 % 15.37 C
120 10-06-2021 09:55:00 19.3 C 82 % 16.15 C
121 10-06-2021 10:00:00 19.4 C 80 % 15.86 C
122 10-06-2021 10:05:00 19.6 C 83 % 16.63 C
123 10-06-2021 10:10:00 19.7 C 83 % 16.73 C
124 10-06-2021 10:15:00 19.8 C 83 % 16.83 C
125 10-06-2021 10:20:00 20 C 83 % 17.02 C
Sensor: Nr:Datum:Temp:Feuchte:Taupunkt:
Aussen-T/F 126 10-06-2021 10:25:00 20.3 C 80 % 16.74 C
127 10-06-2021 10:30:00 20.6 C 77 % 16.43 C
128 10-06-2021 10:35:00 21.1 C 80 % 17.51 C
129 10-06-2021 10:40:00 21.5 C 79 % 17.7 C
130 10-06-2021 10:45:00 21.8 C 75 % 17.17 C
131 10-06-2021 10:50:00 22.1 C 74 % 17.25 C
132 10-06-2021 10:55:00 22.3 C 73 % 17.23 C
133 10-06-2021 11:00:00 22.4 C 72 % 17.1 C
134 10-06-2021 11:05:00 22.5 C 71 % 16.98 C
135 10-06-2021 11:10:00 22.6 C 72 % 17.3 C
136 10-06-2021 11:15:00 22.7 C 72 % 17.39 C
137 10-06-2021 11:20:00 22.8 C 69 % 16.82 C
138 10-06-2021 11:25:00 22.8 C 69 % 16.82 C
139 10-06-2021 11:30:00 22.7 C 69 % 16.72 C
140 10-06-2021 11:35:00 22.8 C 70 % 17.04 C
141 10-06-2021 11:40:00 22.9 C 70 % 17.14 C
142 10-06-2021 11:45:00 22.9 C 71 % 17.36 C
143 10-06-2021 11:50:00 23 C 71 % 17.46 C
144 10-06-2021 11:55:00 23.1 C 67 % 16.64 C
145 10-06-2021 12:00:00 23.2 C 65 % 16.26 C
146 10-06-2021 12:05:00 23.2 C 65 % 16.26 C
147 10-06-2021 12:10:00 23.3 C 64 % 16.11 C
148 10-06-2021 12:15:00 23.3 C 67 % 16.83 C
149 10-06-2021 12:20:00 23.3 C 65 % 16.35 C
150 10-06-2021 12:25:00 23.3 C 64 % 16.11 C
Sensor: Nr:Datum:Temp:Feuchte:Taupunkt:
Aussen-T/F 151 10-06-2021 12:30:00 23.4 C 63 % 15.96 C
152 10-06-2021 12:35:00 23.5 C 63 % 16.05 C
153 10-06-2021 12:40:00 23.7 C 62 % 15.99 C
154 10-06-2021 12:45:00 23.8 C 61 % 15.83 C
155 10-06-2021 12:50:00 24 C 62 % 16.27 C
156 10-06-2021 12:55:00 24.1 C 60 % 15.85 C
157 10-06-2021 13:00:00 24.3 C 59 % 15.78 C
158 10-06-2021 13:05:00 24.3 C 60 % 16.04 C
159 10-06-2021 13:10:00 24.3 C 57 % 15.24 C
160 10-06-2021 13:15:00 24.3 C 55 % 14.68 C
161 10-06-2021 13:20:00 24.4 C 54 % 14.49 C
162 10-06-2021 13:25:00 24.5 C 56 % 15.15 C
163 10-06-2021 13:30:00 24.5 C 55 % 14.87 C
164 10-06-2021 13:35:00 24.7 C 53 % 14.48 C
165 10-06-2021 13:40:00 24.8 C 52 % 14.28 C
166 10-06-2021 13:45:00 24.8 C 53 % 14.57 C
167 10-06-2021 13:50:00 24.9 C 54 % 14.95 C
168 10-06-2021 13:55:00 25.2 C 53 % 14.94 C
169 10-06-2021 14:00:00 25.4 C 48 % 13.6 C
170 10-06-2021 14:05:00 25.3 C 46 % 12.85 C
171 10-06-2021 14:10:00 25.4 C 47 % 13.27 C
172 10-06-2021 14:15:00 25.4 C 48 % 13.6 C
173 10-06-2021 14:20:00 25.4 C 48 % 13.6 C
174 10-06-2021 14:25:00 25.4 C 46 % 12.94 C
175 10-06-2021 14:30:00 25.4 C 45 % 12.61 C
Sensor: Nr:Datum:Temp:Feuchte:Taupunkt:
Aussen-T/F 176 10-06-2021 14:35:00 25.4 C 44 % 12.27 C
177 10-06-2021 14:40:00 25.6 C 43 % 12.1 C
178 10-06-2021 14:45:00 25.9 C 41 % 11.64 C
179 10-06-2021 14:50:00 26.1 C 40 % 11.45 C
180 10-06-2021 14:55:00 26.1 C 42 % 12.19 C
181 10-06-2021 15:00:00 26.1 C 39 % 11.07 C
182 10-06-2021 15:05:00 26.2 C 42 % 12.28 C
183 10-06-2021 15:10:00 26.3 C 40 % 11.63 C
184 10-06-2021 15:15:00 26.3 C 43 % 12.73 C
185 10-06-2021 15:20:00 26.5 C 40 % 11.81 C
186 10-06-2021 15:25:00 26.5 C 41 % 12.18 C
187 10-06-2021 15:30:00 26.7 C 39 % 11.6 C
188 10-06-2021 15:35:00 26.8 C 38 % 11.3 C
189 10-06-2021 15:40:00 27.1 C 38 % 11.56 C
190 10-06-2021 15:45:00 27.4 C 37 % 11.43 C
191 10-06-2021 15:50:00 27.7 C 40 % 12.88 C
192 10-06-2021 15:55:00 27.9 C 40 % 13.05 C
193 10-06-2021 16:00:00 28.2 C 36 % 11.72 C
194 10-06-2021 16:05:00 28.3 C 37 % 12.22 C
195 10-06-2021 16:10:00 28.2 C 37 % 12.13 C
196 10-06-2021 16:15:00 28.2 C 37 % 12.13 C
197 10-06-2021 16:20:00 28.3 C 39 % 13.02 C
198 10-06-2021 16:25:00 28.5 C 38 % 12.8 C
199 10-06-2021 16:30:00 28.5 C 38 % 12.8 C
200 10-06-2021 16:35:00 28.6 C 40 % 13.68 C
Sensor: Nr:Datum:Temp:Feuchte:Taupunkt:
Aussen-T/F 201 10-06-2021 16:40:00 28.7 C 39 % 13.38 C
202 10-06-2021 16:45:00 28.8 C 39 % 13.47 C
203 10-06-2021 16:50:00 28.8 C 38 % 13.07 C
204 10-06-2021 16:55:00 28.9 C 40 % 13.95 C
205 10-06-2021 17:00:00 29.1 C 36 % 12.51 C
206 10-06-2021 17:05:00 29.2 C 35 % 12.17 C
207 10-06-2021 17:10:00 29.2 C 36 % 12.6 C
208 10-06-2021 17:15:00 29.1 C 36 % 12.51 C
209 10-06-2021 17:20:00 29.1 C 36 % 12.51 C
210 10-06-2021 17:25:00 28.9 C 35 % 11.91 C
211 10-06-2021 17:30:00 28.9 C 36 % 12.33 C
212 10-06-2021 17:35:00 29.1 C 36 % 12.51 C
213 10-06-2021 17:40:00 29.1 C 37 % 12.93 C
214 10-06-2021 17:45:00 28.9 C 38 % 13.16 C
215 10-06-2021 17:50:00 28.9 C 38 % 13.16 C
216 10-06-2021 17:55:00 28.8 C 40 % 13.86 C
217 10-06-2021 18:00:00 28.8 C 38 % 13.07 C
218 10-06-2021 18:05:00 28.7 C 38 % 12.98 C
219 10-06-2021 18:10:00 28.4 C 38 % 12.72 C
220 10-06-2021 18:15:00 28.3 C 40 % 13.41 C
221 10-06-2021 18:20:00 28.4 C 39 % 13.11 C
222 10-06-2021 18:25:00 28.4 C 38 % 12.72 C
223 10-06-2021 18:30:00 28.3 C 40 % 13.41 C
224 10-06-2021 18:35:00 27.9 C 39 % 12.67 C
225 10-06-2021 18:40:00 27.6 C 41 % 13.16 C
Sensor: Nr:Datum:Temp:Feuchte:Taupunkt:
Aussen-T/F 226 10-06-2021 18:45:00 27.2 C 43 % 13.54 C
227 10-06-2021 18:50:00 27.1 C 43 % 13.45 C
228 10-06-2021 18:55:00 26.9 C 44 % 13.62 C
229 10-06-2021 19:00:00 26.9 C 43 % 13.27 C
230 10-06-2021 19:05:00 27 C 44 % 13.71 C
231 10-06-2021 19:10:00 27 C 42 % 13 C
232 10-06-2021 19:15:00 26.8 C 42 % 12.82 C
233 10-06-2021 19:20:00 26.7 C 45 % 13.78 C
234 10-06-2021 19:25:00 26.6 C 44 % 13.35 C
235 10-06-2021 19:30:00 26.6 C 44 % 13.35 C
236 10-06-2021 19:35:00 26.5 C 44 % 13.26 C
237 10-06-2021 19:40:00 26.4 C 44 % 13.17 C
238 10-06-2021 19:45:00 26.4 C 45 % 13.51 C
239 10-06-2021 19:50:00 26.4 C 45 % 13.51 C
240 10-06-2021 19:55:00 26.4 C 45 % 13.51 C
241 10-06-2021 20:00:00 26.1 C 48 % 14.23 C
242 10-06-2021 20:05:00 25.6 C 48 % 13.78 C
243 10-06-2021 20:10:00 25.4 C 48 % 13.6 C
244 10-06-2021 20:15:00 25.4 C 48 % 13.6 C
245 10-06-2021 20:20:00 25.4 C 48 % 13.6 C
246 10-06-2021 20:25:00 25.4 C 49 % 13.91 C
247 10-06-2021 20:30:00 25.4 C 56 % 15.99 C
248 10-06-2021 20:35:00 25.4 C 57 % 16.26 C
249 10-06-2021 20:40:00 25.3 C 59 % 16.71 C
250 10-06-2021 20:45:00 25.2 C 59 % 16.62 C
Sensor: Nr:Datum:Temp:Feuchte:Taupunkt:
Aussen-T/F 251 10-06-2021 20:50:00 24.8 C 59 % 16.24 C
252 10-06-2021 20:55:00 24.4 C 60 % 16.13 C
253 10-06-2021 21:00:00 23.9 C 61 % 15.92 C
254 10-06-2021 21:05:00 23.6 C 62 % 15.89 C
255 10-06-2021 21:10:00 23.1 C 64 % 15.92 C
256 10-06-2021 21:15:00 22.7 C 65 % 15.78 C
257 10-06-2021 21:20:00 22.2 C 65 % 15.31 C
258 10-06-2021 21:25:00 21.8 C 65 % 14.93 C
259 10-06-2021 21:30:00 21.5 C 65 % 14.65 C
260 10-06-2021 21:35:00 21.2 C 65 % 14.36 C
261 10-06-2021 21:40:00 21 C 66 % 14.41 C
262 10-06-2021 21:45:00 20.8 C 67 % 14.45 C
263 10-06-2021 21:50:00 20.7 C 68 % 14.58 C
264 10-06-2021 21:55:00 20.5 C 69 % 14.62 C
265 10-06-2021 22:00:00 20.3 C 71 % 14.87 C
266 10-06-2021 22:05:00 20.1 C 72 % 14.9 C
267 10-06-2021 22:10:00 19.9 C 72 % 14.7 C
268 10-06-2021 22:15:00 19.7 C 73 % 14.73 C
269 10-06-2021 22:20:00 19.4 C 74 % 14.65 C
270 10-06-2021 22:25:00 19.3 C 76 % 14.97 C
271 10-06-2021 22:30:00 19 C 77 % 14.88 C
272 10-06-2021 22:35:00 18.8 C 78 % 14.88 C
273 10-06-2021 22:40:00 18.6 C 78 % 14.69 C
274 10-06-2021 22:45:00 18.4 C 79 % 14.69 C
275 10-06-2021 22:50:00 18.2 C 79 % 14.5 C
Sensor: Nr:Datum:Temp:Feuchte:Taupunkt:
Aussen-T/F 276 10-06-2021 22:55:00 18.1 C 80 % 14.6 C
277 10-06-2021 23:00:00 17.9 C 80 % 14.4 C
278 10-06-2021 23:05:00 17.8 C 81 % 14.5 C
279 10-06-2021 23:10:00 17.7 C 82 % 14.59 C
280 10-06-2021 23:15:00 17.5 C 82 % 14.39 C
281 10-06-2021 23:20:00 17.3 C 82 % 14.2 C
282 10-06-2021 23:25:00 17.2 C 82 % 14.1 C
283 10-06-2021 23:30:00 17.1 C 83 % 14.19 C
284 10-06-2021 23:35:00 16.9 C 82 % 13.81 C
285 10-06-2021 23:40:00 16.8 C 83 % 13.9 C
286 10-06-2021 23:45:00 16.7 C 83 % 13.8 C
287 10-06-2021 23:50:00 16.7 C 84 % 13.98 C
288 10-06-2021 23:55:00 16.6 C 84 % 13.89 C
289 11-06-2021 00:00:00 16.4 C 84 % 13.69 C
290 11-06-2021 00:05:00 16.4 C 84 % 13.69 C
291 11-06-2021 00:10:00 16.3 C 84 % 13.59 C
292 11-06-2021 00:15:00 16.2 C 85 % 13.68 C
293 11-06-2021 00:20:00 16.1 C 85 % 13.58 C
294 11-06-2021 00:25:00 16.1 C 85 % 13.58 C
295 11-06-2021 00:30:00 16.1 C 86 % 13.76 C
296 11-06-2021 00:35:00 16.1 C 86 % 13.76 C
297 11-06-2021 00:40:00 16 C 86 % 13.66 C
298 11-06-2021 00:45:00 16 C 86 % 13.66 C
299 11-06-2021 00:50:00 15.9 C 86 % 13.56 C
300 11-06-2021 00:55:00 15.9 C 86 % 13.56 C
Sensor: Nr:Datum:Temp:Feuchte:Taupunkt:
Aussen-T/F 301 11-06-2021 01:00:00 15.9 C 86 % 13.56 C
302 11-06-2021 01:05:00 15.8 C 86 % 13.46 C
303 11-06-2021 01:10:00 15.8 C 87 % 13.64 C
304 11-06-2021 01:15:00 15.8 C 87 % 13.64 C
305 11-06-2021 01:20:00 15.8 C 87 % 13.64 C
306 11-06-2021 01:25:00 15.8 C 87 % 13.64 C
307 11-06-2021 01:30:00 15.7 C 87 % 13.54 C
308 11-06-2021 01:35:00 15.7 C 87 % 13.54 C
309 11-06-2021 01:40:00 15.6 C 87 % 13.45 C
310 11-06-2021 01:45:00 15.5 C 87 % 13.35 C
311 11-06-2021 01:50:00 15.4 C 88 % 13.42 C
312 11-06-2021 01:55:00 15.3 C 88 % 13.33 C
313 11-06-2021 02:00:00 15.3 C 88 % 13.33 C
314 11-06-2021 02:05:00 15.2 C 88 % 13.23 C
315 11-06-2021 02:10:00 15.1 C 88 % 13.13 C
316 11-06-2021 02:15:00 15 C 89 % 13.2 C
317 11-06-2021 02:20:00 14.9 C 89 % 13.1 C
318 11-06-2021 02:25:00 14.8 C 89 % 13.01 C
319 11-06-2021 02:30:00 14.8 C 89 % 13.01 C
320 11-06-2021 02:35:00 14.7 C 90 % 13.08 C
321 11-06-2021 02:40:00 14.6 C 90 % 12.98 C
322 11-06-2021 02:45:00 14.6 C 90 % 12.98 C
323 11-06-2021 02:50:00 14.5 C 90 % 12.88 C
324 11-06-2021 02:55:00 14.4 C 90 % 12.78 C
325 11-06-2021 03:00:00 14.4 C 90 % 12.78 C
Sensor: Nr:Datum:Temp:Feuchte:Taupunkt:
Aussen-T/F 326 11-06-2021 03:05:00 14.3 C 91 % 12.85 C
327 11-06-2021 03:10:00 14.3 C 91 % 12.85 C
328 11-06-2021 03:15:00 14.3 C 91 % 12.85 C
329 11-06-2021 03:20:00 14.2 C 91 % 12.75 C
330 11-06-2021 03:25:00 14.2 C 91 % 12.75 C
331 11-06-2021 03:30:00 14.2 C 92 % 12.92 C
332 11-06-2021 03:35:00 14.1 C 92 % 12.82 C
333 11-06-2021 03:40:00 14.1 C 91 % 12.65 C
334 11-06-2021 03:45:00 14 C 92 % 12.72 C
335 11-06-2021 03:50:00 13.9 C 92 % 12.62 C
336 11-06-2021 03:55:00 13.9 C 92 % 12.62 C
337 11-06-2021 04:00:00 13.8 C 92 % 12.52 C
338 11-06-2021 04:05:00 13.8 C 92 % 12.52 C
339 11-06-2021 04:10:00 13.8 C 92 % 12.52 C
340 11-06-2021 04:15:00 13.7 C 92 % 12.42 C
341 11-06-2021 04:20:00 13.7 C 92 % 12.42 C
342 11-06-2021 04:25:00 13.6 C 92 % 12.33 C
343 11-06-2021 04:30:00 13.6 C 93 % 12.49 C
344 11-06-2021 04:35:00 13.6 C 93 % 12.49 C
345 11-06-2021 04:40:00 13.6 C 93 % 12.49 C
346 11-06-2021 04:45:00 13.5 C 93 % 12.39 C
347 11-06-2021 04:50:00 13.5 C 93 % 12.39 C
348 11-06-2021 04:55:00 13.4 C 93 % 12.29 C
349 11-06-2021 05:00:00 13.4 C 93 % 12.29 C
350 11-06-2021 05:05:00 13.4 C 93 % 12.29 C
Sensor: Nr:Datum:Temp:Feuchte:Taupunkt:
Aussen-T/F 351 11-06-2021 05:10:00 13.3 C 93 % 12.19 C
352 11-06-2021 05:15:00 13.3 C 93 % 12.19 C
353 11-06-2021 05:20:00 13.3 C 94 % 12.36 C
354 11-06-2021 05:25:00 13.3 C 93 % 12.19 C
355 11-06-2021 05:30:00 13.3 C 94 % 12.36 C
356 11-06-2021 05:35:00 13.3 C 94 % 12.36 C
357 11-06-2021 05:40:00 13.3 C 94 % 12.36 C
358 11-06-2021 05:45:00 13.3 C 94 % 12.36 C
359 11-06-2021 05:50:00 13.3 C 94 % 12.36 C
360 11-06-2021 05:55:00 13.4 C 94 % 12.45 C
361 11-06-2021 06:00:00 13.4 C 94 % 12.45 C
362 11-06-2021 06:05:00 13.3 C 94 % 12.36 C
363 11-06-2021 06:10:00 13.3 C 94 % 12.36 C
364 11-06-2021 06:15:00 13.3 C 94 % 12.36 C
365 11-06-2021 06:20:00 13.3 C 94 % 12.36 C
366 11-06-2021 06:25:00 13.4 C 94 % 12.45 C
367 11-06-2021 06:30:00 13.4 C 94 % 12.45 C
368 11-06-2021 06:35:00 13.4 C 94 % 12.45 C
369 11-06-2021 06:40:00 13.4 C 94 % 12.45 C
370 11-06-2021 06:45:00 13.4 C 94 % 12.45 C
371 11-06-2021 06:50:00 13.5 C 94 % 12.55 C
372 11-06-2021 06:55:00 13.5 C 95 % 12.72 C
373 11-06-2021 07:00:00 13.6 C 95 % 12.81 C
374 11-06-2021 07:05:00 13.6 C 95 % 12.81 C
375 11-06-2021 07:10:00 13.7 C 95 % 12.91 C
Sensor: Nr:Datum:Temp:Feuchte:Taupunkt:
Aussen-T/F 376 11-06-2021 07:15:00 13.7 C 95 % 12.91 C
377 11-06-2021 07:20:00 13.8 C 95 % 13.01 C
378 11-06-2021 07:25:00 13.8 C 95 % 13.01 C
379 11-06-2021 07:30:00 13.9 C 95 % 13.11 C
380 11-06-2021 07:35:00 13.9 C 95 % 13.11 C
381 11-06-2021 07:40:00 14 C 95 % 13.21 C
382 11-06-2021 07:45:00 14.1 C 95 % 13.31 C
383 11-06-2021 07:50:00 14.2 C 95 % 13.41 C
384 11-06-2021 07:55:00 14.2 C 95 % 13.41 C
385 11-06-2021 08:00:00 14.3 C 95 % 13.51 C
386 11-06-2021 08:05:00 14.4 C 95 % 13.61 C
387 11-06-2021 08:10:00 14.5 C 95 % 13.71 C
388 11-06-2021 08:15:00 14.7 C 95 % 13.91 C
389 11-06-2021 08:20:00 14.8 C 95 % 14.01 C
390 11-06-2021 08:25:00 14.9 C 95 % 14.11 C
391 11-06-2021 08:30:00 15 C 95 % 14.21 C
392 11-06-2021 08:35:00 15.1 C 95 % 14.31 C
393 11-06-2021 08:40:00 15.2 C 95 % 14.4 C
394 11-06-2021 08:45:00 15.3 C 95 % 14.5 C
395 11-06-2021 08:50:00 15.4 C 95 % 14.6 C
396 11-06-2021 08:55:00 15.6 C 95 % 14.8 C
397 11-06-2021 09:00:00 15.7 C 95 % 14.9 C
398 11-06-2021 09:05:00 15.8 C 95 % 15 C
399 11-06-2021 09:10:00 16 C 95 % 15.2 C
400 11-06-2021 09:15:00 16.2 C 95 % 15.4 C
Sensor: Nr:Datum:Temp:Feuchte:Taupunkt:
Aussen-T/F 401 11-06-2021 09:20:00 16.3 C 95 % 15.5 C
402 11-06-2021 09:25:00 16.4 C 95 % 15.6 C
403 11-06-2021 09:30:00 16.6 C 94 % 15.63 C
404 11-06-2021 09:35:00 16.8 C 94 % 15.83 C
405 11-06-2021 09:40:00 17 C 94 % 16.03 C
406 11-06-2021 09:45:00 17.2 C 93 % 16.06 C
407 11-06-2021 09:50:00 17.3 C 92 % 15.99 C
408 11-06-2021 09:55:00 17.5 C 91 % 16.01 C
409 11-06-2021 10:00:00 17.7 C 90 % 16.04 C
410 11-06-2021 10:05:00 18.1 C 90 % 16.43 C
411 11-06-2021 10:10:00 18.3 C 89 % 16.46 C
412 11-06-2021 10:15:00 18.7 C 88 % 16.67 C
413 11-06-2021 10:20:00 19.1 C 87 % 16.89 C
414 11-06-2021 10:25:00 19.7 C 87 % 17.47 C
415 11-06-2021 10:30:00 20.2 C 83 % 17.22 C
416 11-06-2021 10:35:00 20.8 C 79 % 17.02 C
417 11-06-2021 10:40:00 21.3 C 77 % 17.1 C
418 11-06-2021 10:45:00 21.9 C 77 % 17.68 C
419 11-06-2021 10:50:00 22.3 C 76 % 17.86 C
420 11-06-2021 10:55:00 22.6 C 74 % 17.73 C
421 11-06-2021 11:00:00 22.7 C 73 % 17.61 C
422 11-06-2021 11:05:00 22.8 C 72 % 17.49 C
423 11-06-2021 11:10:00 22.8 C 71 % 17.27 C
424 11-06-2021 11:15:00 22.9 C 71 % 17.36 C
425 11-06-2021 11:20:00 22.9 C 72 % 17.58 C
Sensor: Nr:Datum:Temp:Feuchte:Taupunkt:
Aussen-T/F 426 11-06-2021 11:25:00 22.9 C 70 % 17.14 C
427 11-06-2021 11:30:00 23.1 C 72 % 17.78 C
428 11-06-2021 11:35:00 23.1 C 70 % 17.33 C
429 11-06-2021 11:40:00 23.1 C 68 % 16.87 C
430 11-06-2021 11:45:00 23.2 C 68 % 16.97 C
431 11-06-2021 11:50:00 23.3 C 66 % 16.59 C
432 11-06-2021 11:55:00 23.3 C 67 % 16.83 C
433 11-06-2021 12:00:00 23.4 C 64 % 16.2 C
434 11-06-2021 12:05:00 23.5 C 62 % 15.8 C
435 11-06-2021 12:10:00 23.6 C 59 % 15.12 C
436 11-06-2021 12:15:00 23.8 C 55 % 14.22 C
437 11-06-2021 12:20:00 24.1 C 58 % 15.32 C
438 11-06-2021 12:25:00 24.3 C 58 % 15.51 C
439 11-06-2021 12:30:00 24.3 C 58 % 15.51 C
440 11-06-2021 12:35:00 24.3 C 58 % 15.51 C
441 11-06-2021 12:40:00 24.3 C 60 % 16.04 C
442 11-06-2021 12:45:00 24.3 C 57 % 15.24 C
443 11-06-2021 12:50:00 24.4 C 60 % 16.13 C
444 11-06-2021 12:55:00 24.5 C 58 % 15.7 C
445 11-06-2021 13:00:00 24.7 C 57 % 15.61 C
446 11-06-2021 13:05:00 24.7 C 57 % 15.61 C
447 11-06-2021 13:10:00 24.8 C 56 % 15.43 C
448 11-06-2021 13:15:00 24.9 C 58 % 16.07 C
449 11-06-2021 13:20:00 24.9 C 58 % 16.07 C
450 11-06-2021 13:25:00 24.9 C 57 % 15.8 C
Sensor: Nr:Datum:Temp:Feuchte:Taupunkt:
Aussen-T/F 451 11-06-2021 13:30:00 25 C 58 % 16.16 C
452 11-06-2021 13:35:00 25.1 C 58 % 16.26 C
453 11-06-2021 13:40:00 25.1 C 56 % 15.71 C
454 11-06-2021 13:45:00 25.3 C 56 % 15.89 C
455 11-06-2021 13:50:00 25.4 C 54 % 15.42 C
456 11-06-2021 13:55:00 25.6 C 55 % 15.89 C
457 11-06-2021 14:00:00 25.7 C 56 % 16.26 C
458 11-06-2021 14:05:00 25.7 C 54 % 15.7 C
459 11-06-2021 14:10:00 25.8 C 54 % 15.79 C
460 11-06-2021 14:15:00 26.1 C 54 % 16.07 C
461 11-06-2021 14:20:00 26.2 C 53 % 15.87 C
462 11-06-2021 14:25:00 26.3 C 52 % 15.66 C
463 11-06-2021 14:30:00 26.4 C 51 % 15.45 C
464 11-06-2021 14:35:00 26.6 C 51 % 15.63 C
465 11-06-2021 14:40:00 26.5 C 50 % 15.23 C
466 11-06-2021 14:45:00 26.6 C 51 % 15.63 C
467 11-06-2021 14:50:00 26.6 C 52 % 15.94 C
468 11-06-2021 14:55:00 26.7 C 52 % 16.03 C
469 11-06-2021 15:00:00 26.9 C 53 % 16.51 C
470 11-06-2021 15:05:00 27 C 53 % 16.6 C
471 11-06-2021 15:10:00 27 C 49 % 15.38 C
472 11-06-2021 15:15:00 27 C 48 % 15.05 C
473 11-06-2021 15:20:00 27.1 C 49 % 15.47 C
474 11-06-2021 15:25:00 27.5 C 51 % 16.46 C
475 11-06-2021 15:30:00 27.9 C 50 % 16.51 C
Sensor: Nr:Datum:Temp:Feuchte:Taupunkt:
Aussen-T/F 476 11-06-2021 15:35:00 28.3 C 50 % 16.88 C
477 11-06-2021 15:40:00 28.7 C 48 % 16.6 C
478 11-06-2021 15:45:00 29.2 C 49 % 17.39 C
479 11-06-2021 15:50:00 29.4 C 45 % 16.23 C
480 11-06-2021 15:55:00 29.6 C 47 % 17.09 C
481 11-06-2021 16:00:00 29.7 C 47 % 17.18 C
482 11-06-2021 16:05:00 29.6 C 41 % 14.95 C
483 11-06-2021 16:10:00 29.4 C 43 % 15.51 C
484 11-06-2021 16:15:00 29 C 43 % 15.15 C
485 11-06-2021 16:20:00 28.7 C 44 % 15.24 C
486 11-06-2021 16:25:00 28.6 C 46 % 15.85 C
487 11-06-2021 16:30:00 28.6 C 45 % 15.5 C
488 11-06-2021 16:35:00 28.8 C 47 % 16.36 C
489 11-06-2021 16:40:00 29.1 C 46 % 16.3 C
490 11-06-2021 16:45:00 29.1 C 46 % 16.3 C
491 11-06-2021 16:50:00 29 C 48 % 16.88 C
492 11-06-2021 16:55:00 29.1 C 46 % 16.3 C
493 11-06-2021 17:00:00 28.9 C 46 % 16.12 C
494 11-06-2021 17:05:00 28.8 C 46 % 16.03 C
495 11-06-2021 17:10:00 28.9 C 47 % 16.45 C
496 11-06-2021 17:15:00 29.1 C 53 % 18.54 C
497 11-06-2021 17:20:00 29.2 C 46 % 16.39 C
498 11-06-2021 17:25:00 29.4 C 46 % 16.57 C
499 11-06-2021 17:30:00 29.6 C 46 % 16.75 C
500 11-06-2021 17:35:00 29.7 C 46 % 16.84 C
Sensor: Nr:Datum:Temp:Feuchte:Taupunkt:
Aussen-T/F 501 11-06-2021 17:40:00 29.9 C 46 % 17.02 C
502 11-06-2021 17:45:00 30 C 45 % 16.77 C
503 11-06-2021 17:50:00 29.8 C 46 % 16.93 C
504 11-06-2021 17:55:00 30 C 46 % 17.11 C
505 11-06-2021 18:00:00 29.9 C 46 % 17.02 C
506 11-06-2021 18:05:00 29.6 C 46 % 16.75 C
507 11-06-2021 18:10:00 29.4 C 47 % 16.91 C
508 11-06-2021 18:15:00 29.2 C 48 % 17.06 C
509 11-06-2021 18:20:00 29.1 C 50 % 17.61 C
510 11-06-2021 18:25:00 28.8 C 50 % 17.34 C
511 11-06-2021 18:30:00 28.6 C 50 % 17.16 C
512 11-06-2021 18:35:00 28.7 C 51 % 17.56 C
513 11-06-2021 18:40:00 28.8 C 51 % 17.65 C
514 11-06-2021 18:45:00 28.8 C 50 % 17.34 C
515 11-06-2021 18:50:00 28.8 C 51 % 17.65 C
516 11-06-2021 18:55:00 28.7 C 51 % 17.56 C
517 11-06-2021 19:00:00 28.6 C 51 % 17.47 C
518 11-06-2021 19:05:00 28.3 C 53 % 17.8 C
519 11-06-2021 19:10:00 28.1 C 54 % 17.92 C
520 11-06-2021 19:15:00 28 C 54 % 17.82 C
521 11-06-2021 19:20:00 28 C 54 % 17.82 C
522 11-06-2021 19:25:00 28 C 53 % 17.53 C
523 11-06-2021 19:30:00 27.8 C 55 % 17.93 C
524 11-06-2021 19:35:00 27.7 C 55 % 17.84 C
525 11-06-2021 19:40:00 27.5 C 55 % 17.65 C
Sensor: Nr:Datum:Temp:Feuchte:Taupunkt:
Aussen-T/F 526 11-06-2021 19:45:00 27.4 C 55 % 17.56 C
527 11-06-2021 19:50:00 27.3 C 56 % 17.75 C
528 11-06-2021 19:55:00 27.2 C 56 % 17.66 C
529 11-06-2021 20:00:00 27 C 56 % 17.47 C
530 11-06-2021 20:05:00 26.9 C 56 % 17.38 C
531 11-06-2021 20:10:00 26.7 C 57 % 17.47 C
532 11-06-2021 20:15:00 26.7 C 58 % 17.75 C
533 11-06-2021 20:20:00 26.6 C 58 % 17.66 C
534 11-06-2021 20:25:00 26.5 C 57 % 17.29 C
535 11-06-2021 20:30:00 26.4 C 58 % 17.47 C
536 11-06-2021 20:35:00 26.3 C 58 % 17.38 C
537 11-06-2021 20:40:00 26.1 C 59 % 17.46 C
538 11-06-2021 20:45:00 25.9 C 57 % 16.73 C
539 11-06-2021 20:50:00 25.8 C 59 % 17.18 C
540 11-06-2021 20:55:00 25.7 C 58 % 16.82 C
541 11-06-2021 21:00:00 25.6 C 59 % 16.99 C
542 11-06-2021 21:05:00 25.4 C 59 % 16.81 C
543 11-06-2021 21:10:00 25.3 C 58 % 16.44 C
544 11-06-2021 21:15:00 25.1 C 59 % 16.52 C
545 11-06-2021 21:20:00 24.9 C 58 % 16.07 C
546 11-06-2021 21:25:00 24.8 C 63 % 17.28 C
547 11-06-2021 21:30:00 24.4 C 65 % 17.39 C
548 11-06-2021 21:35:00 24 C 67 % 17.49 C
549 11-06-2021 21:40:00 23.4 C 69 % 17.39 C
550 11-06-2021 21:45:00 22.8 C 68 % 16.59 C
Sensor: Nr:Datum:Temp:Feuchte:Taupunkt:
Aussen-T/F 551 11-06-2021 21:50:00 22.5 C 69 % 16.53 C
552 11-06-2021 21:55:00 22.2 C 71 % 16.69 C
553 11-06-2021 22:00:00 21.9 C 73 % 16.84 C
554 11-06-2021 22:05:00 21.7 C 74 % 16.86 C
555 11-06-2021 22:10:00 21.3 C 75 % 16.69 C
556 11-06-2021 22:15:00 21.1 C 75 % 16.5 C
557 11-06-2021 22:20:00 20.8 C 75 % 16.21 C
558 11-06-2021 22:25:00 20.7 C 76 % 16.32 C
559 11-06-2021 22:30:00 20.6 C 76 % 16.22 C
560 11-06-2021 22:35:00 20.4 C 76 % 16.03 C
561 11-06-2021 22:40:00 20.3 C 76 % 15.93 C
562 11-06-2021 22:45:00 20.3 C 77 % 16.14 C
563 11-06-2021 22:50:00 20.2 C 77 % 16.04 C
564 11-06-2021 22:55:00 20.1 C 77 % 15.94 C
565 11-06-2021 23:00:00 20.1 C 78 % 16.14 C
566 11-06-2021 23:05:00 19.9 C 78 % 15.95 C
567 11-06-2021 23:10:00 19.8 C 79 % 16.05 C
568 11-06-2021 23:15:00 19.6 C 79 % 15.86 C
569 11-06-2021 23:20:00 19.3 C 80 % 15.76 C
570 11-06-2021 23:25:00 19.2 C 81 % 15.86 C
571 11-06-2021 23:30:00 19 C 81 % 15.67 C
572 11-06-2021 23:35:00 18.8 C 82 % 15.66 C
573 11-06-2021 23:40:00 18.7 C 83 % 15.75 C
574 11-06-2021 23:45:00 18.5 C 83 % 15.56 C
575 11-06-2021 23:50:00 18.3 C 83 % 15.36 C
Sensor: Nr:Datum:Temp:Feuchte:Taupunkt:
Aussen-T/F 576 11-06-2021 23:55:00 18.2 C 84 % 15.45 C
577 12-06-2021 00:00:00 18.1 C 84 % 15.35 C
578 12-06-2021 00:05:00 18 C 85 % 15.44 C
579 12-06-2021 00:10:00 17.9 C 85 % 15.34 C
580 12-06-2021 00:15:00 17.8 C 86 % 15.43 C
581 12-06-2021 00:20:00 17.7 C 86 % 15.33 C
582 12-06-2021 00:25:00 17.6 C 86 % 15.23 C
583 12-06-2021 00:30:00 17.5 C 86 % 15.13 C
584 12-06-2021 00:35:00 17.4 C 87 % 15.21 C
585 12-06-2021 00:40:00 17.3 C 87 % 15.12 C
586 12-06-2021 00:45:00 17.3 C 87 % 15.12 C
587 12-06-2021 00:50:00 17.2 C 87 % 15.02 C
588 12-06-2021 00:55:00 17.2 C 87 % 15.02 C
589 12-06-2021 01:00:00 17.1 C 87 % 14.92 C
590 12-06-2021 01:05:00 17.1 C 88 % 15.1 C
591 12-06-2021 01:10:00 17.1 C 88 % 15.1 C
592 12-06-2021 01:15:00 17 C 88 % 15 C
593 12-06-2021 01:20:00 16.9 C 88 % 14.9 C
594 12-06-2021 01:25:00 16.9 C 87 % 14.72 C
595 12-06-2021 01:30:00 16.8 C 88 % 14.8 C
596 12-06-2021 01:35:00 16.9 C 88 % 14.9 C
597 12-06-2021 01:40:00 16.9 C 89 % 15.08 C
598 12-06-2021 01:45:00 16.9 C 89 % 15.08 C
599 12-06-2021 01:50:00 16.9 C 88 % 14.9 C
600 12-06-2021 01:55:00 16.9 C 88 % 14.9 C
Sensor: Nr:Datum:Temp:Feuchte:Taupunkt:
Aussen-T/F 601 12-06-2021 02:00:00 16.9 C 89 % 15.08 C
602 12-06-2021 02:05:00 16.8 C 89 % 14.98 C
603 12-06-2021 02:10:00 16.8 C 89 % 14.98 C
604 12-06-2021 02:15:00 16.8 C 89 % 14.98 C
605 12-06-2021 02:20:00 16.8 C 89 % 14.98 C
606 12-06-2021 02:25:00 16.8 C 89 % 14.98 C
607 12-06-2021 02:30:00 16.7 C 89 % 14.88 C
608 12-06-2021 02:35:00 16.7 C 90 % 15.05 C
609 12-06-2021 02:40:00 16.7 C 90 % 15.05 C
610 12-06-2021 02:45:00 16.7 C 90 % 15.05 C
611 12-06-2021 02:50:00 16.7 C 90 % 15.05 C
612 12-06-2021 02:55:00 16.6 C 90 % 14.95 C
613 12-06-2021 03:00:00 16.6 C 90 % 14.95 C
614 12-06-2021 03:05:00 16.5 C 90 % 14.85 C
615 12-06-2021 03:10:00 16.4 C 90 % 14.76 C
616 12-06-2021 03:15:00 16.4 C 90 % 14.76 C
617 12-06-2021 03:20:00 16.3 C 90 % 14.66 C
618 12-06-2021 03:25:00 16.2 C 90 % 14.56 C
619 12-06-2021 03:30:00 16.1 C 90 % 14.46 C
620 12-06-2021 03:35:00 16.1 C 91 % 14.63 C
621 12-06-2021 03:40:00 16 C 91 % 14.53 C
622 12-06-2021 03:45:00 15.9 C 91 % 14.43 C
623 12-06-2021 03:50:00 15.9 C 91 % 14.43 C
624 12-06-2021 03:55:00 15.9 C 92 % 14.6 C
625 12-06-2021 04:00:00 15.9 C 92 % 14.6 C
Sensor: Nr:Datum:Temp:Feuchte:Taupunkt:
Aussen-T/F 626 12-06-2021 04:05:00 15.9 C 92 % 14.6 C
627 12-06-2021 04:10:00 15.8 C 92 % 14.5 C
628 12-06-2021 04:15:00 15.8 C 92 % 14.5 C
629 12-06-2021 04:20:00 15.8 C 92 % 14.5 C
630 12-06-2021 04:25:00 15.8 C 92 % 14.5 C
631 12-06-2021 04:30:00 15.7 C 92 % 14.4 C
632 12-06-2021 04:35:00 15.7 C 92 % 14.4 C
633 12-06-2021 04:40:00 15.6 C 92 % 14.31 C
634 12-06-2021 04:45:00 15.5 C 92 % 14.21 C
635 12-06-2021 04:50:00 15.4 C 92 % 14.11 C
636 12-06-2021 04:55:00 15.3 C 92 % 14.01 C
637 12-06-2021 05:00:00 15.2 C 92 % 13.91 C
638 12-06-2021 05:05:00 15.2 C 92 % 13.91 C
639 12-06-2021 05:10:00 15.1 C 93 % 13.98 C
640 12-06-2021 05:15:00 15.1 C 93 % 13.98 C
641 12-06-2021 05:20:00 15.1 C 93 % 13.98 C
642 12-06-2021 05:25:00 15 C 93 % 13.88 C
643 12-06-2021 05:30:00 15 C 93 % 13.88 C
644 12-06-2021 05:35:00 15.1 C 93 % 13.98 C
645 12-06-2021 05:40:00 15.1 C 94 % 14.14 C
646 12-06-2021 05:45:00 15.1 C 94 % 14.14 C
647 12-06-2021 05:50:00 15.2 C 94 % 14.24 C
648 12-06-2021 05:55:00 15.2 C 94 % 14.24 C
649 12-06-2021 06:00:00 15.3 C 94 % 14.34 C
650 12-06-2021 06:05:00 15.3 C 94 % 14.34 C
Sensor: Nr:Datum:Temp:Feuchte:Taupunkt:
Aussen-T/F 651 12-06-2021 06:10:00 15.3 C 94 % 14.34 C
652 12-06-2021 06:15:00 15.3 C 94 % 14.34 C
653 12-06-2021 06:20:00 15.3 C 94 % 14.34 C
654 12-06-2021 06:25:00 15.3 C 94 % 14.34 C
655 12-06-2021 06:30:00 15.3 C 94 % 14.34 C
656 12-06-2021 06:35:00 15.3 C 94 % 14.34 C
657 12-06-2021 06:40:00 15.4 C 94 % 14.44 C
658 12-06-2021 06:45:00 15.5 C 94 % 14.54 C
659 12-06-2021 06:50:00 15.6 C 94 % 14.64 C
660 12-06-2021 06:55:00 15.7 C 94 % 14.74 C
661 12-06-2021 07:00:00 15.7 C 93 % 14.57 C
662 12-06-2021 07:05:00 15.7 C 93 % 14.57 C
663 12-06-2021 07:10:00 15.8 C 93 % 14.67 C
664 12-06-2021 07:15:00 15.8 C 93 % 14.67 C
665 12-06-2021 07:20:00 15.9 C 93 % 14.77 C
666 12-06-2021 07:25:00 15.9 C 93 % 14.77 C
667 12-06-2021 07:30:00 16.1 C 93 % 14.97 C
668 12-06-2021 07:35:00 16.2 C 93 % 15.07 C
669 12-06-2021 07:40:00 16.3 C 92 % 15 C
670 12-06-2021 07:45:00 16.3 C 92 % 15 C
671 12-06-2021 07:50:00 16.4 C 92 % 15.1 C
672 12-06-2021 07:55:00 16.6 C 92 % 15.3 C
673 12-06-2021 08:00:00 16.7 C 92 % 15.39 C
674 12-06-2021 08:05:00 16.8 C 92 % 15.49 C
675 12-06-2021 08:10:00 16.9 C 91 % 15.42 C
Sensor: Nr:Datum:Temp:Feuchte:Taupunkt:
Aussen-T/F 676 12-06-2021 08:15:00 17.2 C 91 % 15.72 C
677 12-06-2021 08:20:00 17.3 C 90 % 15.64 C
678 12-06-2021 08:25:00 17.5 C 90 % 15.84 C
679 12-06-2021 08:30:00 17.7 C 90 % 16.04 C
680 12-06-2021 08:35:00 17.9 C 89 % 16.06 C
681 12-06-2021 08:40:00 18.2 C 88 % 16.18 C
682 12-06-2021 08:45:00 18.3 C 88 % 16.28 C
683 12-06-2021 08:50:00 18.4 C 88 % 16.38 C
684 12-06-2021 08:55:00 18.5 C 88 % 16.48 C
685 12-06-2021 09:00:00 18.7 C 88 % 16.67 C
686 12-06-2021 09:05:00 18.8 C 87 % 16.59 C
687 12-06-2021 09:10:00 19.1 C 87 % 16.89 C
688 12-06-2021 09:15:00 19.4 C 86 % 17 C
689 12-06-2021 09:20:00 19.7 C 85 % 17.11 C
690 12-06-2021 09:25:00 19.9 C 84 % 17.12 C
691 12-06-2021 09:30:00 20.1 C 84 % 17.31 C
692 12-06-2021 09:35:00 20.2 C 84 % 17.41 C
693 12-06-2021 09:40:00 20.3 C 83 % 17.32 C
694 12-06-2021 09:45:00 20.4 C 82 % 17.22 C
695 12-06-2021 09:50:00 20.4 C 82 % 17.22 C
696 12-06-2021 09:55:00 20.5 C 82 % 17.32 C
697 12-06-2021 10:00:00 20.6 C 82 % 17.42 C
698 12-06-2021 10:05:00 20.8 C 82 % 17.61 C
699 12-06-2021 10:10:00 21.1 C 81 % 17.71 C
700 12-06-2021 10:15:00 21.2 C 80 % 17.61 C
Sensor: Nr:Datum:Temp:Feuchte:Taupunkt:
Aussen-T/F 701 12-06-2021 10:20:00 21.3 C 79 % 17.51 C
702 12-06-2021 10:25:00 21.3 C 79 % 17.51 C
703 12-06-2021 10:30:00 21.4 C 80 % 17.81 C
704 12-06-2021 10:35:00 21.4 C 79 % 17.61 C
705 12-06-2021 10:40:00 21.5 C 79 % 17.7 C
706 12-06-2021 10:45:00 21.6 C 78 % 17.6 C
707 12-06-2021 10:50:00 21.7 C 78 % 17.7 C
708 12-06-2021 10:55:00 21.6 C 78 % 17.6 C
709 12-06-2021 11:00:00 21.7 C 78 % 17.7 C
710 12-06-2021 11:05:00 21.8 C 75 % 17.17 C
711 12-06-2021 11:10:00 21.9 C 76 % 17.48 C
712 12-06-2021 11:15:00 22.1 C 73 % 17.03 C
713 12-06-2021 11:20:00 22.2 C 73 % 17.13 C
714 12-06-2021 11:25:00 22.4 C 71 % 16.88 C
715 12-06-2021 11:30:00 22.4 C 70 % 16.66 C
716 12-06-2021 11:35:00 22.5 C 69 % 16.53 C
717 12-06-2021 11:40:00 22.7 C 66 % 16.02 C
718 12-06-2021 11:45:00 22.7 C 65 % 15.78 C
719 12-06-2021 11:50:00 22.7 C 66 % 16.02 C
720 12-06-2021 11:55:00 22.8 C 65 % 15.88 C
721 12-06-2021 12:00:00 22.8 C 64 % 15.64 C
722 12-06-2021 12:05:00 22.9 C 65 % 15.97 C
723 12-06-2021 12:10:00 23 C 64 % 15.82 C
724 12-06-2021 12:15:00 23.1 C 62 % 15.42 C
725 12-06-2021 12:20:00 23.3 C 64 % 16.11 C
Sensor: Nr:Datum:Temp:Feuchte:Taupunkt:
Aussen-T/F 726 12-06-2021 12:25:00 23.4 C 62 % 15.71 C
727 12-06-2021 12:30:00 23.6 C 62 % 15.89 C
728 12-06-2021 12:35:00 23.6 C 62 % 15.89 C
729 12-06-2021 12:40:00 23.7 C 61 % 15.73 C
730 12-06-2021 12:45:00 23.6 C 62 % 15.89 C
731 12-06-2021 12:50:00 23.3 C 65 % 16.35 C
732 12-06-2021 12:55:00 22.8 C 68 % 16.59 C
733 12-06-2021 13:00:00 22.4 C 71 % 16.88 C
734 12-06-2021 13:05:00 22 C 72 % 16.72 C
735 12-06-2021 13:10:00 21.8 C 73 % 16.75 C
736 12-06-2021 13:15:00 21.7 C 74 % 16.86 C
737 12-06-2021 13:20:00 21.7 C 73 % 16.65 C
738 12-06-2021 13:25:00 21.7 C 72 % 16.43 C
739 12-06-2021 13:30:00 21.7 C 73 % 16.65 C
740 12-06-2021 13:35:00 21.6 C 72 % 16.34 C
741 12-06-2021 13:40:00 21.5 C 73 % 16.46 C
742 12-06-2021 13:45:00 21.4 C 73 % 16.36 C
743 12-06-2021 13:50:00 21.3 C 73 % 16.26 C
744 12-06-2021 13:55:00 21.3 C 74 % 16.48 C
745 12-06-2021 14:00:00 21.2 C 74 % 16.38 C
746 12-06-2021 14:05:00 21.1 C 74 % 16.29 C
747 12-06-2021 14:10:00 21.1 C 75 % 16.5 C
748 12-06-2021 14:15:00 21.1 C 75 % 16.5 C
749 12-06-2021 14:20:00 21.1 C 74 % 16.29 C
750 12-06-2021 14:25:00 21 C 74 % 16.19 C
Sensor: Nr:Datum:Temp:Feuchte:Taupunkt:
Aussen-T/F 751 12-06-2021 14:30:00 20.8 C 75 % 16.21 C
752 12-06-2021 14:35:00 20.7 C 75 % 16.11 C
753 12-06-2021 14:40:00 20.7 C 75 % 16.11 C
754 12-06-2021 14:45:00 20.7 C 75 % 16.11 C
755 12-06-2021 14:50:00 20.8 C 75 % 16.21 C
756 12-06-2021 14:55:00 20.8 C 75 % 16.21 C
757 12-06-2021 15:00:00 20.9 C 75 % 16.3 C
758 12-06-2021 15:05:00 20.8 C 75 % 16.21 C
759 12-06-2021 15:10:00 20.8 C 75 % 16.21 C
760 12-06-2021 15:15:00 20.8 C 75 % 16.21 C
761 12-06-2021 15:20:00 20.9 C 75 % 16.3 C
762 12-06-2021 15:25:00 21.1 C 70 % 15.42 C
763 12-06-2021 15:30:00 21.2 C 70 % 15.51 C
764 12-06-2021 15:35:00 21.3 C 69 % 15.38 C
765 12-06-2021 15:40:00 21.6 C 67 % 15.21 C
766 12-06-2021 15:45:00 21.7 C 68 % 15.54 C
767 12-06-2021 15:50:00 21.7 C 67 % 15.31 C
768 12-06-2021 15:55:00 21.8 C 69 % 15.86 C
769 12-06-2021 16:00:00 22.1 C 66 % 15.45 C
770 12-06-2021 16:05:00 22.5 C 66 % 15.83 C
771 12-06-2021 16:10:00 22.9 C 64 % 15.73 C
772 12-06-2021 16:15:00 23.2 C 63 % 15.77 C
773 12-06-2021 16:20:00 23.4 C 63 % 15.96 C
774 12-06-2021 16:25:00 23.7 C 63 % 16.24 C
775 12-06-2021 16:30:00 24 C 59 % 15.5 C
Sensor: Nr:Datum:Temp:Feuchte:Taupunkt:
Aussen-T/F 776 12-06-2021 16:35:00 24.2 C 59 % 15.68 C
777 12-06-2021 16:40:00 24.3 C 58 % 15.51 C
778 12-06-2021 16:45:00 24.6 C 55 % 14.96 C
779 12-06-2021 16:50:00 24.7 C 53 % 14.48 C
780 12-06-2021 16:55:00 24.5 C 53 % 14.3 C
781 12-06-2021 17:00:00 24.1 C 54 % 14.21 C
782 12-06-2021 17:05:00 24.1 C 56 % 14.78 C
783 12-06-2021 17:10:00 23.9 C 53 % 13.74 C
784 12-06-2021 17:15:00 23.7 C 55 % 14.13 C
785 12-06-2021 17:20:00 23.3 C 57 % 14.31 C
786 12-06-2021 17:25:00 22.9 C 57 % 13.93 C
787 12-06-2021 17:30:00 22.7 C 59 % 14.28 C
788 12-06-2021 17:35:00 22.5 C 61 % 14.61 C
789 12-06-2021 17:40:00 22.4 C 61 % 14.51 C
790 12-06-2021 17:45:00 22.4 C 62 % 14.76 C
791 12-06-2021 17:50:00 22.4 C 61 % 14.51 C
792 12-06-2021 17:55:00 22.3 C 61 % 14.42 C
793 12-06-2021 18:00:00 22.4 C 61 % 14.51 C
794 12-06-2021 18:05:00 22.8 C 62 % 15.14 C
795 12-06-2021 18:10:00 23.2 C 61 % 15.26 C
796 12-06-2021 18:15:00 23.5 C 61 % 15.55 C
797 12-06-2021 18:20:00 23.7 C 60 % 15.48 C
798 12-06-2021 18:25:00 23.7 C 59 % 15.21 C
799 12-06-2021 18:30:00 23.2 C 61 % 15.26 C
800 12-06-2021 18:35:00 22.8 C 63 % 15.39 C
Sensor: Nr:Datum:Temp:Feuchte:Taupunkt:
Aussen-T/F 801 12-06-2021 18:40:00 22.7 C 64 % 15.54 C
802 12-06-2021 18:45:00 22.9 C 63 % 15.48 C
803 12-06-2021 18:50:00 23.1 C 62 % 15.42 C
804 12-06-2021 18:55:00 23.2 C 61 % 15.26 C
805 12-06-2021 19:00:00 23.1 C 62 % 15.42 C
806 12-06-2021 19:05:00 22.9 C 60 % 14.73 C
807 12-06-2021 19:10:00 22.8 C 61 % 14.89 C
808 12-06-2021 19:15:00 22.5 C 61 % 14.61 C
809 12-06-2021 19:20:00 22.5 C 60 % 14.35 C
810 12-06-2021 19:25:00 22.6 C 58 % 13.92 C
811 12-06-2021 19:30:00 22.6 C 59 % 14.18 C
812 12-06-2021 19:35:00 22.6 C 57 % 13.65 C
813 12-06-2021 19:40:00 22.6 C 57 % 13.65 C
814 12-06-2021 19:45:00 22.4 C 57 % 13.47 C
815 12-06-2021 19:50:00 22.4 C 57 % 13.47 C
816 12-06-2021 19:55:00 22.3 C 57 % 13.37 C
817 12-06-2021 20:00:00 22.3 C 57 % 13.37 C
818 12-06-2021 20:05:00 22.3 C 56 % 13.1 C
819 12-06-2021 20:10:00 22.2 C 56 % 13.01 C
820 12-06-2021 20:15:00 22.2 C 56 % 13.01 C
821 12-06-2021 20:20:00 22.1 C 56 % 12.92 C
822 12-06-2021 20:25:00 22 C 57 % 13.09 C
823 12-06-2021 20:30:00 21.9 C 56 % 12.73 C
824 12-06-2021 20:35:00 21.7 C 56 % 12.54 C
825 12-06-2021 20:40:00 21.5 C 56 % 12.36 C
Sensor: Nr:Datum:Temp:Feuchte:Taupunkt:
Aussen-T/F 826 12-06-2021 20:45:00 21.4 C 57 % 12.53 C
827 12-06-2021 20:50:00 21.3 C 58 % 12.71 C
828 12-06-2021 20:55:00 21.1 C 57 % 12.25 C
829 12-06-2021 21:00:00 20.9 C 57 % 12.07 C
830 12-06-2021 21:05:00 20.7 C 58 % 12.15 C
831 12-06-2021 21:10:00 20.6 C 59 % 12.31 C
832 12-06-2021 21:15:00 20.4 C 58 % 11.86 C
833 12-06-2021 21:20:00 20.2 C 59 % 11.94 C
834 12-06-2021 21:25:00 20.1 C 62 % 12.6 C
835 12-06-2021 21:30:00 19.9 C 63 % 12.65 C
836 12-06-2021 21:35:00 19.7 C 64 % 12.7 C
837 12-06-2021 21:40:00 19.3 C 66 % 12.79 C
838 12-06-2021 21:45:00 18.9 C 66 % 12.41 C
839 12-06-2021 21:50:00 18.6 C 67 % 12.36 C
840 12-06-2021 21:55:00 18.3 C 67 % 12.07 C
841 12-06-2021 22:00:00 18.2 C 68 % 12.2 C
842 12-06-2021 22:05:00 17.9 C 67 % 11.69 C
843 12-06-2021 22:10:00 17.8 C 70 % 12.26 C
844 12-06-2021 22:15:00 17.7 C 70 % 12.16 C
845 12-06-2021 22:20:00 17.6 C 70 % 12.07 C
846 12-06-2021 22:25:00 17.4 C 70 % 11.88 C
847 12-06-2021 22:30:00 17.3 C 71 % 12 C
848 12-06-2021 22:35:00 17.2 C 71 % 11.9 C
849 12-06-2021 22:40:00 17.1 C 71 % 11.8 C
850 12-06-2021 22:45:00 17 C 72 % 11.92 C
Sensor: Nr:Datum:Temp:Feuchte:Taupunkt:
Aussen-T/F 851 12-06-2021 22:50:00 16.9 C 74 % 12.24 C
852 12-06-2021 22:55:00 16.7 C 74 % 12.05 C
853 12-06-2021 23:00:00 16.6 C 75 % 12.15 C
854 12-06-2021 23:05:00 16.4 C 75 % 11.96 C
855 12-06-2021 23:10:00 16.3 C 76 % 12.07 C
856 12-06-2021 23:15:00 16.2 C 76 % 11.97 C
857 12-06-2021 23:20:00 16.1 C 76 % 11.87 C
858 12-06-2021 23:25:00 15.9 C 76 % 11.68 C
859 12-06-2021 23:30:00 15.8 C 76 % 11.58 C
860 12-06-2021 23:35:00 15.8 C 76 % 11.58 C
861 12-06-2021 23:40:00 15.9 C 74 % 11.28 C
862 12-06-2021 23:45:00 16.1 C 74 % 11.47 C
863 12-06-2021 23:50:00 16.1 C 74 % 11.47 C
864 12-06-2021 23:55:00 16.1 C 75 % 11.67 C
865 13-06-2021 00:00:00 15.9 C 75 % 11.48 C
866 13-06-2021 00:05:00 15.8 C 73 % 10.97 C
867 13-06-2021 00:10:00 15.8 C 75 % 11.38 C
868 13-06-2021 00:15:00 15.7 C 74 % 11.08 C
869 13-06-2021 00:20:00 15.7 C 73 % 10.88 C
870 13-06-2021 00:25:00 15.8 C 74 % 11.18 C
871 13-06-2021 00:30:00 15.8 C 74 % 11.18 C
872 13-06-2021 00:35:00 15.8 C 73 % 10.97 C
873 13-06-2021 00:40:00 15.9 C 73 % 11.07 C
874 13-06-2021 00:45:00 15.9 C 73 % 11.07 C
875 13-06-2021 00:50:00 15.9 C 72 % 10.86 C
Sensor: Nr:Datum:Temp:Feuchte:Taupunkt:
Aussen-T/F 876 13-06-2021 00:55:00 16 C 72 % 10.96 C
877 13-06-2021 01:00:00 16.1 C 72 % 11.06 C
878 13-06-2021 01:05:00 16.1 C 72 % 11.06 C
879 13-06-2021 01:10:00 16 C 72 % 10.96 C
880 13-06-2021 01:15:00 15.9 C 73 % 11.07 C
881 13-06-2021 01:20:00 15.8 C 74 % 11.18 C
882 13-06-2021 01:25:00 15.6 C 74 % 10.99 C
883 13-06-2021 01:30:00 15.4 C 75 % 11 C
884 13-06-2021 01:35:00 15.2 C 76 % 11 C
885 13-06-2021 01:40:00 15.1 C 77 % 11.1 C
886 13-06-2021 01:45:00 14.8 C 78 % 11 C
887 13-06-2021 01:50:00 14.6 C 79 % 11 C
888 13-06-2021 01:55:00 14.4 C 80 % 11 C
889 13-06-2021 02:00:00 14.2 C 80 % 10.8 C
890 13-06-2021 02:05:00 14.1 C 81 % 10.89 C
891 13-06-2021 02:10:00 13.9 C 81 % 10.7 C
892 13-06-2021 02:15:00 13.8 C 82 % 10.78 C
893 13-06-2021 02:20:00 13.7 C 82 % 10.69 C
894 13-06-2021 02:25:00 13.6 C 83 % 10.77 C
895 13-06-2021 02:30:00 13.6 C 83 % 10.77 C
896 13-06-2021 02:35:00 13.6 C 83 % 10.77 C
897 13-06-2021 02:40:00 13.6 C 83 % 10.77 C
898 13-06-2021 02:45:00 13.6 C 83 % 10.77 C
899 13-06-2021 02:50:00 13.6 C 83 % 10.77 C
900 13-06-2021 02:55:00 13.5 C 83 % 10.67 C
Sensor: Nr:Datum:Temp:Feuchte:Taupunkt:
Aussen-T/F 901 13-06-2021 03:00:00 13.5 C 83 % 10.67 C
902 13-06-2021 03:05:00 13.4 C 82 % 10.39 C
903 13-06-2021 03:10:00 13.4 C 82 % 10.39 C
904 13-06-2021 03:15:00 13.4 C 82 % 10.39 C
905 13-06-2021 03:20:00 13.3 C 82 % 10.3 C
906 13-06-2021 03:25:00 13.3 C 82 % 10.3 C
907 13-06-2021 03:30:00 13.3 C 82 % 10.3 C
908 13-06-2021 03:35:00 13.3 C 83 % 10.48 C
909 13-06-2021 03:40:00 13.2 C 83 % 10.38 C
910 13-06-2021 03:45:00 13 C 83 % 10.18 C
911 13-06-2021 03:50:00 12.9 C 84 % 10.26 C
912 13-06-2021 03:55:00 12.8 C 84 % 10.17 C
913 13-06-2021 04:00:00 12.7 C 85 % 10.25 C
914 13-06-2021 04:05:00 12.7 C 85 % 10.25 C
915 13-06-2021 04:10:00 12.8 C 84 % 10.17 C
916 13-06-2021 04:15:00 12.8 C 84 % 10.17 C
917 13-06-2021 04:20:00 12.9 C 84 % 10.26 C
918 13-06-2021 04:25:00 13 C 84 % 10.36 C
919 13-06-2021 04:30:00 13 C 83 % 10.18 C
920 13-06-2021 04:35:00 13 C 83 % 10.18 C
921 13-06-2021 04:40:00 13 C 83 % 10.18 C
922 13-06-2021 04:45:00 12.9 C 83 % 10.09 C
923 13-06-2021 04:50:00 12.9 C 83 % 10.09 C
924 13-06-2021 04:55:00 12.8 C 83 % 9.99 C
925 13-06-2021 05:00:00 12.7 C 84 % 10.07 C
Sensor: Nr:Datum:Temp:Feuchte:Taupunkt:
Aussen-T/F 926 13-06-2021 05:05:00 12.6 C 84 % 9.97 C
927 13-06-2021 05:10:00 12.4 C 85 % 9.95 C
928 13-06-2021 05:15:00 12.3 C 85 % 9.85 C
929 13-06-2021 05:20:00 12.1 C 86 % 9.83 C
930 13-06-2021 05:25:00 11.9 C 86 % 9.64 C
931 13-06-2021 05:30:00 11.8 C 87 % 9.71 C
932 13-06-2021 05:35:00 11.8 C 87 % 9.71 C
933 13-06-2021 05:40:00 11.7 C 88 % 9.78 C
934 13-06-2021 05:45:00 11.6 C 88 % 9.68 C
935 13-06-2021 05:50:00 11.6 C 88 % 9.68 C
936 13-06-2021 05:55:00 11.6 C 88 % 9.68 C
937 13-06-2021 06:00:00 11.7 C 89 % 9.95 C
938 13-06-2021 06:05:00 11.7 C 89 % 9.95 C
939 13-06-2021 06:10:00 11.8 C 89 % 10.05 C
940 13-06-2021 06:15:00 11.8 C 89 % 10.05 C
941 13-06-2021 06:20:00 11.9 C 89 % 10.15 C
942 13-06-2021 06:25:00 12 C 89 % 10.25 C
943 13-06-2021 06:30:00 12.1 C 89 % 10.34 C
944 13-06-2021 06:35:00 12.1 C 89 % 10.34 C
945 13-06-2021 06:40:00 12.1 C 89 % 10.34 C
946 13-06-2021 06:45:00 12.2 C 89 % 10.44 C
947 13-06-2021 06:50:00 12.2 C 89 % 10.44 C
948 13-06-2021 06:55:00 12.1 C 89 % 10.34 C
949 13-06-2021 07:00:00 12.1 C 88 % 10.17 C
950 13-06-2021 07:05:00 12.1 C 88 % 10.17 C
Sensor: Nr:Datum:Temp:Feuchte:Taupunkt:
Aussen-T/F 951 13-06-2021 07:10:00 12 C 89 % 10.25 C
952 13-06-2021 07:15:00 12 C 89 % 10.25 C
953 13-06-2021 07:20:00 11.9 C 89 % 10.15 C
954 13-06-2021 07:25:00 12 C 89 % 10.25 C
955 13-06-2021 07:30:00 12 C 89 % 10.25 C
956 13-06-2021 07:35:00 12 C 90 % 10.41 C
957 13-06-2021 07:40:00 12.1 C 90 % 10.51 C
958 13-06-2021 07:45:00 12.1 C 90 % 10.51 C
959 13-06-2021 07:50:00 12.1 C 90 % 10.51 C
960 13-06-2021 07:55:00 12.2 C 90 % 10.61 C
961 13-06-2021 08:00:00 12.2 C 90 % 10.61 C
962 13-06-2021 08:05:00 12.2 C 90 % 10.61 C
963 13-06-2021 08:10:00 12.2 C 90 % 10.61 C
964 13-06-2021 08:15:00 12.3 C 90 % 10.71 C
965 13-06-2021 08:20:00 12.3 C 90 % 10.71 C
966 13-06-2021 08:25:00 12.4 C 90 % 10.81 C
967 13-06-2021 08:30:00 12.4 C 90 % 10.81 C
968 13-06-2021 08:35:00 12.6 C 90 % 11 C
969 13-06-2021 08:40:00 12.7 C 89 % 10.94 C
970 13-06-2021 08:45:00 12.8 C 88 % 10.86 C
971 13-06-2021 08:50:00 12.9 C 87 % 10.79 C
972 13-06-2021 08:55:00 13.2 C 86 % 10.91 C
973 13-06-2021 09:00:00 13.4 C 86 % 11.11 C
974 13-06-2021 09:05:00 13.7 C 84 % 11.05 C
975 13-06-2021 09:10:00 14 C 82 % 10.98 C
Sensor: Nr:Datum:Temp:Feuchte:Taupunkt:
Aussen-T/F 976 13-06-2021 09:15:00 14.3 C 81 % 11.09 C
977 13-06-2021 09:20:00 14.6 C 78 % 10.81 C
978 13-06-2021 09:25:00 14.7 C 77 % 10.71 C
979 13-06-2021 09:30:00 14.9 C 76 % 10.71 C
980 13-06-2021 09:35:00 15.1 C 75 % 10.71 C
981 13-06-2021 09:40:00 15.3 C 74 % 10.7 C
982 13-06-2021 09:45:00 15.4 C 74 % 10.79 C
983 13-06-2021 09:50:00 15.6 C 73 % 10.78 C
984 13-06-2021 09:55:00 15.7 C 74 % 11.08 C
985 13-06-2021 10:00:00 15.9 C 72 % 10.86 C
986 13-06-2021 10:05:00 16.1 C 71 % 10.84 C
987 13-06-2021 10:10:00 16.3 C 73 % 11.46 C
988 13-06-2021 10:15:00 16.6 C 70 % 11.11 C
989 13-06-2021 10:20:00 16.8 C 69 % 11.09 C
990 13-06-2021 10:25:00 16.9 C 70 % 11.4 C
991 13-06-2021 10:30:00 17 C 67 % 10.83 C
992 13-06-2021 10:35:00 17.1 C 68 % 11.15 C
993 13-06-2021 10:40:00 17.3 C 66 % 10.89 C
994 13-06-2021 10:45:00 17.3 C 66 % 10.89 C
995 13-06-2021 10:50:00 17.3 C 65 % 10.66 C
996 13-06-2021 10:55:00 17.3 C 65 % 10.66 C
997 13-06-2021 11:00:00 17.4 C 66 % 10.99 C
998 13-06-2021 11:05:00 17.4 C 66 % 10.99 C
999 13-06-2021 11:10:00 17.6 C 66 % 11.18 C
1000 13-06-2021 11:15:00 17.6 C 62 % 10.24 C
Sensor: Nr:Datum:Temp:Feuchte:Taupunkt:
Aussen-T/F 1001 13-06-2021 11:20:00 17.6 C 64 % 10.72 C
1002 13-06-2021 11:25:00 17.6 C 63 % 10.48 C
1003 13-06-2021 11:30:00 17.7 C 62 % 10.33 C
1004 13-06-2021 11:35:00 17.6 C 64 % 10.72 C
1005 13-06-2021 11:40:00 17.5 C 63 % 10.38 C
1006 13-06-2021 11:45:00 17.5 C 64 % 10.62 C
1007 13-06-2021 11:50:00 17.6 C 64 % 10.72 C
1008 13-06-2021 11:55:00 17.7 C 65 % 11.04 C
1009 13-06-2021 12:00:00 17.8 C 65 % 11.14 C
1010 13-06-2021 12:05:00 17.8 C 63 % 10.67 C
1011 13-06-2021 12:10:00 17.9 C 63 % 10.76 C
1012 13-06-2021 12:15:00 18 C 62 % 10.62 C
1013 13-06-2021 12:20:00 18.1 C 64 % 11.19 C
1014 13-06-2021 12:25:00 18.1 C 62 % 10.71 C
1015 13-06-2021 12:30:00 18.1 C 64 % 11.19 C
1016 13-06-2021 12:35:00 18.2 C 63 % 11.05 C
1017 13-06-2021 12:40:00 18.3 C 62 % 10.9 C
1018 13-06-2021 12:45:00 18.3 C 62 % 10.9 C
1019 13-06-2021 12:50:00 18.5 C 61 % 10.84 C
1020 13-06-2021 12:55:00 18.7 C 61 % 11.03 C
1021 13-06-2021 13:00:00 18.8 C 59 % 10.63 C
1022 13-06-2021 13:05:00 18.8 C 60 % 10.88 C
1023 13-06-2021 13:10:00 18.9 C 60 % 10.97 C
1024 13-06-2021 13:15:00 19 C 60 % 11.07 C
1025 13-06-2021 13:20:00 19.1 C 58 % 10.65 C
Sensor: Nr:Datum:Temp:Feuchte:Taupunkt:
Aussen-T/F 1026 13-06-2021 13:25:00 19.1 C 57 % 10.39 C
1027 13-06-2021 13:30:00 19.2 C 56 % 10.22 C
1028 13-06-2021 13:35:00 19.3 C 57 % 10.58 C
1029 13-06-2021 13:40:00 19.3 C 56 % 10.31 C
1030 13-06-2021 13:45:00 19.6 C 55 % 10.32 C
1031 13-06-2021 13:50:00 19.6 C 53 % 9.77 C
1032 13-06-2021 13:55:00 19.7 C 52 % 9.58 C
1033 13-06-2021 14:00:00 19.8 C 53 % 9.95 C
1034 13-06-2021 14:05:00 19.8 C 53 % 9.95 C
1035 13-06-2021 14:10:00 19.8 C 55 % 10.51 C
1036 13-06-2021 14:15:00 20.2 C 54 % 10.6 C
1037 13-06-2021 14:20:00 20.4 C 53 % 10.51 C
1038 13-06-2021 14:25:00 20.4 C 53 % 10.51 C
1039 13-06-2021 14:30:00 20.6 C 54 % 10.97 C
1040 13-06-2021 14:35:00 20.7 C 56 % 11.61 C
1041 13-06-2021 14:40:00 20.9 C 53 % 10.97 C
1042 13-06-2021 14:45:00 21.1 C 50 % 10.28 C
1043 13-06-2021 14:50:00 21.2 C 48 % 9.76 C
1044 13-06-2021 14:55:00 21.3 C 47 % 9.54 C
1045 13-06-2021 15:00:00 21.4 C 47 % 9.63 C
1046 13-06-2021 15:05:00 21.4 C 47 % 9.63 C
1047 13-06-2021 15:10:00 21.5 C 51 % 10.94 C
1048 13-06-2021 15:15:00 21.9 C 49 % 10.71 C
1049 13-06-2021 15:20:00 22.2 C 49 % 10.98 C
1050 13-06-2021 15:25:00 22.5 C 52 % 12.16 C
Sensor: Nr:Datum:Temp:Feuchte:Taupunkt:
Aussen-T/F 1051 13-06-2021 15:30:00 23.1 C 49 % 11.81 C
1052 13-06-2021 15:35:00 23.5 C 45 % 10.89 C
1053 13-06-2021 15:40:00 23.7 C 44 % 10.73 C
1054 13-06-2021 15:45:00 23.9 C 43 % 10.57 C
1055 13-06-2021 15:50:00 24.1 C 45 % 11.43 C
1056 13-06-2021 15:55:00 24.3 C 44 % 11.27 C
1057 13-06-2021 16:00:00 24.6 C 44 % 11.54 C
1058 13-06-2021 16:05:00 24.7 C 40 % 10.2 C
1059 13-06-2021 16:10:00 24.8 C 38 % 9.53 C
1060 13-06-2021 16:15:00 24.4 C 40 % 9.93 C
1061 13-06-2021 16:20:00 24.3 C 40 % 9.84 C
1062 13-06-2021 16:25:00 24.4 C 40 % 9.93 C
1063 13-06-2021 16:30:00 24.7 C 40 % 10.2 C
1064 13-06-2021 16:35:00 24.8 C 40 % 10.29 C
1065 13-06-2021 16:40:00 24.8 C 39 % 9.91 C
1066 13-06-2021 16:45:00 24.9 C 38 % 9.61 C
1067 13-06-2021 16:50:00 25.1 C 37 % 9.39 C
1068 13-06-2021 16:55:00 25.1 C 36 % 8.99 C
1069 13-06-2021 17:00:00 25.2 C 37 % 9.48 C
1070 13-06-2021 17:05:00 25.3 C 37 % 9.57 C
1071 13-06-2021 17:10:00 25.4 C 37 % 9.66 C
1072 13-06-2021 17:15:00 25.6 C 36 % 9.43 C
1073 13-06-2021 17:20:00 25.6 C 36 % 9.43 C
1074 13-06-2021 17:25:00 25.6 C 37 % 9.84 C
1075 13-06-2021 17:30:00 25.7 C 37 % 9.92 C
Sensor: Nr:Datum:Temp:Feuchte:Taupunkt:
Aussen-T/F 1076 13-06-2021 17:35:00 25.9 C 37 % 10.1 C
1077 13-06-2021 17:40:00 25.7 C 36 % 9.52 C
1078 13-06-2021 17:45:00 25.5 C 39 % 10.53 C
1079 13-06-2021 17:50:00 25.6 C 37 % 9.84 C
1080 13-06-2021 17:55:00 25.7 C 37 % 9.92 C
1081 13-06-2021 18:00:00 25.6 C 36 % 9.43 C
1082 13-06-2021 18:05:00 25.7 C 37 % 9.92 C
1083 13-06-2021 18:10:00 25.8 C 37 % 10.01 C
1084 13-06-2021 18:15:00 25.8 C 39 % 10.8 C
1085 13-06-2021 18:20:00 25.8 C 39 % 10.8 C
1086 13-06-2021 18:25:00 25.8 C 37 % 10.01 C
1087 13-06-2021 18:30:00 25.8 C 38 % 10.41 C
1088 13-06-2021 18:35:00 25.8 C 38 % 10.41 C
1089 13-06-2021 18:40:00 25.9 C 35 % 9.27 C
1090 13-06-2021 18:45:00 25.8 C 37 % 10.01 C
1091 13-06-2021 18:50:00 25.6 C 37 % 9.84 C
1092 13-06-2021 18:55:00 25.4 C 37 % 9.66 C
1093 13-06-2021 19:00:00 25.1 C 39 % 10.18 C
1094 13-06-2021 19:05:00 24.9 C 39 % 10 C
1095 13-06-2021 19:10:00 24.8 C 39 % 9.91 C
1096 13-06-2021 19:15:00 24.6 C 39 % 9.73 C
1097 13-06-2021 19:20:00 24.5 C 40 % 10.02 C
1098 13-06-2021 19:25:00 24.4 C 39 % 9.56 C
1099 13-06-2021 19:30:00 24.2 C 40 % 9.75 C
1100 13-06-2021 19:35:00 24.2 C 42 % 10.48 C
Sensor: Nr:Datum:Temp:Feuchte:Taupunkt:
Aussen-T/F 1101 13-06-2021 19:40:00 24.2 C 41 % 10.12 C
1102 13-06-2021 19:45:00 24.1 C 42 % 10.39 C
1103 13-06-2021 19:50:00 24.1 C 40 % 9.67 C
1104 13-06-2021 19:55:00 24.1 C 42 % 10.39 C
1105 13-06-2021 20:00:00 24.1 C 46 % 11.76 C
1106 13-06-2021 20:05:00 23.9 C 44 % 10.91 C
1107 13-06-2021 20:10:00 23.7 C 43 % 10.39 C
1108 13-06-2021 20:15:00 23.6 C 42 % 9.94 C
1109 13-06-2021 20:20:00 23.5 C 43 % 10.21 C
1110 13-06-2021 20:25:00 23.4 C 43 % 10.12 C
1111 13-06-2021 20:30:00 23.3 C 44 % 10.37 C
1112 13-06-2021 20:35:00 23.2 C 45 % 10.62 C
1113 13-06-2021 20:40:00 23.1 C 44 % 10.19 C
1114 13-06-2021 20:45:00 23.1 C 45 % 10.53 C
1115 13-06-2021 20:50:00 22.9 C 48 % 11.31 C
1116 13-06-2021 20:55:00 22.8 C 54 % 13.01 C
1117 13-06-2021 21:00:00 22.7 C 56 % 13.47 C
1118 13-06-2021 21:05:00 22.3 C 56 % 13.1 C
1119 13-06-2021 21:10:00 21.7 C 56 % 12.54 C
1120 13-06-2021 21:15:00 21.1 C 58 % 12.52 C
1121 13-06-2021 21:20:00 20.6 C 60 % 12.57 C
1122 13-06-2021 21:25:00 20.1 C 61 % 12.35 C
1123 13-06-2021 21:30:00 19.6 C 62 % 12.13 C
1124 13-06-2021 21:35:00 19.2 C 63 % 11.99 C
1125 13-06-2021 21:40:00 18.8 C 61 % 11.13 C
Sensor: Nr:Datum:Temp:Feuchte:Taupunkt:
Aussen-T/F 1126 13-06-2021 21:45:00 18.6 C 62 % 11.18 C
1127 13-06-2021 21:50:00 18.4 C 63 % 11.23 C
1128 13-06-2021 21:55:00 18.3 C 65 % 11.61 C
1129 13-06-2021 22:00:00 18 C 66 % 11.56 C
1130 13-06-2021 22:05:00 17.7 C 65 % 11.04 C
1131 13-06-2021 22:10:00 17.5 C 65 % 10.85 C
1132 13-06-2021 22:15:00 17.4 C 68 % 11.44 C
1133 13-06-2021 22:20:00 17.2 C 70 % 11.68 C
1134 13-06-2021 22:25:00 17 C 69 % 11.28 C
1135 13-06-2021 22:30:00 16.8 C 70 % 11.3 C
1136 13-06-2021 22:35:00 16.7 C 72 % 11.63 C
1137 13-06-2021 22:40:00 16.4 C 73 % 11.55 C
1138 13-06-2021 22:45:00 16.2 C 74 % 11.56 C
1139 13-06-2021 22:50:00 16 C 74 % 11.37 C
1140 13-06-2021 22:55:00 15.8 C 74 % 11.18 C
1141 13-06-2021 23:00:00 15.6 C 75 % 11.19 C
1142 13-06-2021 23:05:00 15.4 C 76 % 11.19 C
1143 13-06-2021 23:10:00 15.3 C 77 % 11.3 C
1144 13-06-2021 23:15:00 15.1 C 78 % 11.3 C
1145 13-06-2021 23:20:00 14.9 C 79 % 11.29 C
1146 13-06-2021 23:25:00 14.8 C 79 % 11.2 C
1147 13-06-2021 23:30:00 14.7 C 78 % 10.91 C
1148 13-06-2021 23:35:00 14.4 C 79 % 10.81 C
1149 13-06-2021 23:40:00 14.3 C 79 % 10.71 C
1150 13-06-2021 23:45:00 14.2 C 80 % 10.8 C
Sensor: Nr:Datum:Temp:Feuchte:Taupunkt:
Aussen-T/F 1151 13-06-2021 23:50:00 14.1 C 80 % 10.71 C
1152 13-06-2021 23:55:00 14 C 81 % 10.79 C
1153 14-06-2021 00:00:00 13.9 C 82 % 10.88 C
1154 14-06-2021 00:05:00 13.8 C 82 % 10.78 C
1155 14-06-2021 00:10:00 13.7 C 82 % 10.69 C
1156 14-06-2021 00:15:00 13.6 C 82 % 10.59 C
1157 14-06-2021 00:20:00 13.5 C 83 % 10.67 C
1158 14-06-2021 00:25:00 13.4 C 82 % 10.39 C
1159 14-06-2021 00:30:00 13.3 C 83 % 10.48 C
1160 14-06-2021 00:35:00 13.2 C 83 % 10.38 C
1161 14-06-2021 00:40:00 13.1 C 84 % 10.46 C
1162 14-06-2021 00:45:00 13 C 84 % 10.36 C
1163 14-06-2021 00:50:00 12.9 C 84 % 10.26 C
1164 14-06-2021 00:55:00 12.8 C 84 % 10.17 C
1165 14-06-2021 01:00:00 12.7 C 85 % 10.25 C
1166 14-06-2021 01:05:00 12.7 C 85 % 10.25 C
1167 14-06-2021 01:10:00 12.6 C 85 % 10.15 C
1168 14-06-2021 01:15:00 12.5 C 86 % 10.22 C
1169 14-06-2021 01:20:00 12.4 C 86 % 10.13 C
1170 14-06-2021 01:25:00 12.3 C 86 % 10.03 C
1171 14-06-2021 01:30:00 12.2 C 86 % 9.93 C
1172 14-06-2021 01:35:00 12.2 C 87 % 10.1 C
1173 14-06-2021 01:40:00 12.1 C 87 % 10 C
1174 14-06-2021 01:45:00 12.1 C 87 % 10 C
1175 14-06-2021 01:50:00 12 C 87 % 9.91 C
Sensor: Nr:Datum:Temp:Feuchte:Taupunkt:
Aussen-T/F 1176 14-06-2021 01:55:00 11.9 C 88 % 9.98 C
1177 14-06-2021 02:00:00 11.8 C 87 % 9.71 C
1178 14-06-2021 02:05:00 11.8 C 88 % 9.88 C
1179 14-06-2021 02:10:00 11.8 C 88 % 9.88 C
1180 14-06-2021 02:15:00 11.8 C 88 % 9.88 C
1181 14-06-2021 02:20:00 11.7 C 88 % 9.78 C
1182 14-06-2021 02:25:00 11.7 C 88 % 9.78 C
1183 14-06-2021 02:30:00 11.6 C 88 % 9.68 C
1184 14-06-2021 02:35:00 11.6 C 89 % 9.85 C
1185 14-06-2021 02:40:00 11.5 C 89 % 9.75 C
1186 14-06-2021 02:45:00 11.4 C 89 % 9.65 C
1187 14-06-2021 02:50:00 11.3 C 89 % 9.55 C
1188 14-06-2021 02:55:00 11.3 C 89 % 9.55 C
1189 14-06-2021 03:00:00 11.2 C 89 % 9.46 C
1190 14-06-2021 03:05:00 11.1 C 89 % 9.36 C
1191 14-06-2021 03:10:00 11.1 C 90 % 9.52 C
1192 14-06-2021 03:15:00 11 C 90 % 9.42 C
1193 14-06-2021 03:20:00 10.9 C 90 % 9.33 C
1194 14-06-2021 03:25:00 10.9 C 90 % 9.33 C
1195 14-06-2021 03:30:00 10.8 C 90 % 9.23 C
1196 14-06-2021 03:35:00 10.8 C 91 % 9.39 C
1197 14-06-2021 03:40:00 10.7 C 91 % 9.29 C
1198 14-06-2021 03:45:00 10.7 C 91 % 9.29 C
1199 14-06-2021 03:50:00 10.7 C 91 % 9.29 C
1200 14-06-2021 03:55:00 10.6 C 91 % 9.19 C
Sensor: Nr:Datum:Temp:Feuchte:Taupunkt:
Aussen-T/F 1201 14-06-2021 04:00:00 10.6 C 91 % 9.19 C
1202 14-06-2021 04:05:00 10.6 C 91 % 9.19 C
1203 14-06-2021 04:10:00 10.5 C 92 % 9.26 C
1204 14-06-2021 04:15:00 10.4 C 92 % 9.16 C
1205 14-06-2021 04:20:00 10.4 C 92 % 9.16 C
1206 14-06-2021 04:25:00 10.4 C 92 % 9.16 C
1207 14-06-2021 04:30:00 10.3 C 92 % 9.06 C
1208 14-06-2021 04:35:00 10.3 C 92 % 9.06 C
1209 14-06-2021 04:40:00 10.3 C 92 % 9.06 C
1210 14-06-2021 04:45:00 10.2 C 92 % 8.96 C
1211 14-06-2021 04:50:00 10.2 C 92 % 8.96 C
1212 14-06-2021 04:55:00 10.2 C 92 % 8.96 C
1213 14-06-2021 05:00:00 10.1 C 92 % 8.86 C
1214 14-06-2021 05:05:00 10.1 C 93 % 9.02 C
1215 14-06-2021 05:10:00 10 C 93 % 8.92 C
1216 14-06-2021 05:15:00 10 C 93 % 8.92 C
1217 14-06-2021 05:20:00 9.9 C 93 % 8.82 C
1218 14-06-2021 05:25:00 9.9 C 93 % 8.82 C
1219 14-06-2021 05:30:00 9.9 C 93 % 8.82 C
1220 14-06-2021 05:35:00 9.9 C 93 % 8.82 C
1221 14-06-2021 05:40:00 9.8 C 93 % 8.72 C
1222 14-06-2021 05:45:00 9.8 C 93 % 8.72 C
1223 14-06-2021 05:50:00 9.8 C 93 % 8.72 C
1224 14-06-2021 05:55:00 9.8 C 94 % 8.88 C
1225 14-06-2021 06:00:00 9.8 C 94 % 8.88 C
Sensor: Nr:Datum:Temp:Feuchte:Taupunkt:
Aussen-T/F 1226 14-06-2021 06:05:00 9.8 C 94 % 8.88 C
1227 14-06-2021 06:10:00 9.8 C 94 % 8.88 C
1228 14-06-2021 06:15:00 9.9 C 94 % 8.98 C
1229 14-06-2021 06:20:00 9.9 C 94 % 8.98 C
1230 14-06-2021 06:25:00 9.9 C 94 % 8.98 C
1231 14-06-2021 06:30:00 9.9 C 94 % 8.98 C
1232 14-06-2021 06:35:00 9.9 C 94 % 8.98 C
1233 14-06-2021 06:40:00 9.9 C 94 % 8.98 C
1234 14-06-2021 06:45:00 10 C 94 % 9.08 C
1235 14-06-2021 06:50:00 10 C 94 % 9.08 C
1236 14-06-2021 06:55:00 10.1 C 94 % 9.18 C
1237 14-06-2021 07:00:00 10.1 C 94 % 9.18 C
1238 14-06-2021 07:05:00 10.2 C 94 % 9.28 C
1239 14-06-2021 07:10:00 10.2 C 95 % 9.44 C
1240 14-06-2021 07:15:00 10.2 C 95 % 9.44 C
1241 14-06-2021 07:20:00 10.3 C 95 % 9.54 C
1242 14-06-2021 07:25:00 10.3 C 95 % 9.54 C
1243 14-06-2021 07:30:00 10.4 C 95 % 9.63 C
1244 14-06-2021 07:35:00 10.4 C 95 % 9.63 C
1245 14-06-2021 07:40:00 10.6 C 95 % 9.83 C
1246 14-06-2021 07:45:00 10.7 C 95 % 9.93 C
1247 14-06-2021 07:50:00 10.7 C 95 % 9.93 C
1248 14-06-2021 07:55:00 10.8 C 95 % 10.03 C
1249 14-06-2021 08:00:00 10.9 C 95 % 10.13 C
1250 14-06-2021 08:05:00 11.1 C 95 % 10.33 C
Sensor: Nr:Datum:Temp:Feuchte:Taupunkt:
Aussen-T/F 1251 14-06-2021 08:10:00 11.2 C 95 % 10.43 C
1252 14-06-2021 08:15:00 11.3 C 95 % 10.53 C
1253 14-06-2021 08:20:00 11.4 C 95 % 10.63 C
1254 14-06-2021 08:25:00 11.6 C 96 % 10.98 C
1255 14-06-2021 08:30:00 11.7 C 96 % 11.08 C
1256 14-06-2021 08:35:00 11.8 C 95 % 11.03 C
1257 14-06-2021 08:40:00 11.9 C 96 % 11.28 C
1258 14-06-2021 08:45:00 12.1 C 96 % 11.48 C
1259 14-06-2021 08:50:00 12.2 C 96 % 11.58 C
1260 14-06-2021 08:55:00 12.3 C 96 % 11.68 C
1261 14-06-2021 09:00:00 12.5 C 96 % 11.88 C
1262 14-06-2021 09:05:00 12.7 C 96 % 12.08 C
1263 14-06-2021 09:10:00 12.8 C 95 % 12.02 C
1264 14-06-2021 09:15:00 12.9 C 96 % 12.28 C
1265 14-06-2021 09:20:00 13.2 C 95 % 12.42 C
1266 14-06-2021 09:25:00 13.3 C 96 % 12.68 C
1267 14-06-2021 09:30:00 13.5 C 95 % 12.72 C
1268 14-06-2021 09:35:00 13.7 C 95 % 12.91 C
1269 14-06-2021 09:40:00 13.9 C 95 % 13.11 C
1270 14-06-2021 09:45:00 14.1 C 95 % 13.31 C
1271 14-06-2021 09:50:00 14.3 C 94 % 13.35 C
1272 14-06-2021 09:55:00 14.5 C 94 % 13.55 C
1273 14-06-2021 10:00:00 14.7 C 93 % 13.58 C
1274 14-06-2021 10:05:00 15 C 92 % 13.71 C
1275 14-06-2021 10:10:00 15.3 C 92 % 14.01 C
Sensor: Nr:Datum:Temp:Feuchte:Taupunkt:
Aussen-T/F 1276 14-06-2021 10:15:00 15.7 C 91 % 14.24 C
1277 14-06-2021 10:20:00 16.2 C 87 % 14.03 C
1278 14-06-2021 10:25:00 17.1 C 85 % 14.56 C
1279 14-06-2021 10:30:00 17.9 C 84 % 15.16 C
1280 14-06-2021 10:35:00 18.7 C 79 % 14.99 C
1281 14-06-2021 10:40:00 19.4 C 78 % 15.47 C
1282 14-06-2021 10:45:00 20.1 C 70 % 14.46 C
1283 14-06-2021 10:50:00 20.6 C 65 % 13.79 C
1284 14-06-2021 10:55:00 20.9 C 63 % 13.6 C
1285 14-06-2021 11:00:00 21.1 C 62 % 13.54 C
1286 14-06-2021 11:05:00 21.3 C 62 % 13.73 C
1287 14-06-2021 11:10:00 21.5 C 62 % 13.92 C
1288 14-06-2021 11:15:00 21.7 C 60 % 13.6 C
1289 14-06-2021 11:20:00 21.7 C 59 % 13.34 C
1290 14-06-2021 11:25:00 21.7 C 58 % 13.08 C
1291 14-06-2021 11:30:00 21.7 C 59 % 13.34 C
1292 14-06-2021 11:35:00 21.7 C 59 % 13.34 C
1293 14-06-2021 11:40:00 21.7 C 59 % 13.34 C
1294 14-06-2021 11:45:00 21.7 C 59 % 13.34 C
1295 14-06-2021 11:50:00 21.8 C 59 % 13.44 C
1296 14-06-2021 11:55:00 21.9 C 58 % 13.27 C
1297 14-06-2021 12:00:00 22.1 C 57 % 13.19 C
1298 14-06-2021 12:05:00 22.1 C 57 % 13.19 C
1299 14-06-2021 12:10:00 22.1 C 58 % 13.45 C
1300 14-06-2021 12:15:00 22.2 C 57 % 13.28 C
Sensor: Nr:Datum:Temp:Feuchte:Taupunkt:
Aussen-T/F 1301 14-06-2021 12:20:00 22.3 C 56 % 13.1 C
1302 14-06-2021 12:25:00 22.6 C 58 % 13.92 C
1303 14-06-2021 12:30:00 22.7 C 53 % 12.63 C
1304 14-06-2021 12:35:00 22.9 C 54 % 13.1 C
1305 14-06-2021 12:40:00 23.1 C 59 % 14.65 C
1306 14-06-2021 12:45:00 23.1 C 56 % 13.85 C
1307 14-06-2021 12:50:00 23.1 C 53 % 13 C
1308 14-06-2021 12:55:00 23.2 C 54 % 13.38 C
1309 14-06-2021 13:00:00 23.3 C 53 % 13.19 C
1310 14-06-2021 13:05:00 23.4 C 52 % 12.99 C
1311 14-06-2021 13:10:00 23.6 C 52 % 13.17 C
1312 14-06-2021 13:15:00 23.9 C 54 % 14.03 C
1313 14-06-2021 13:20:00 24 C 48 % 12.32 C
1314 14-06-2021 13:25:00 24.1 C 52 % 13.63 C
1315 14-06-2021 13:30:00 24.1 C 51 % 13.34 C
1316 14-06-2021 13:35:00 24.1 C 46 % 11.76 C
1317 14-06-2021 13:40:00 24.2 C 46 % 11.85 C
1318 14-06-2021 13:45:00 24.3 C 48 % 12.59 C
1319 14-06-2021 13:50:00 24.3 C 46 % 11.94 C
1320 14-06-2021 13:55:00 24.3 C 46 % 11.94 C
1321 14-06-2021 14:00:00 24.4 C 47 % 12.36 C
1322 14-06-2021 14:05:00 24.4 C 50 % 13.31 C
1323 14-06-2021 14:10:00 24.4 C 47 % 12.36 C
1324 14-06-2021 14:15:00 24.5 C 47 % 12.45 C
1325 14-06-2021 14:20:00 24.6 C 46 % 12.22 C
Sensor: Nr:Datum:Temp:Feuchte:Taupunkt:
Aussen-T/F 1326 14-06-2021 14:25:00 24.7 C 48 % 12.96 C
1327 14-06-2021 14:30:00 24.8 C 45 % 12.06 C
1328 14-06-2021 14:35:00 25.1 C 45 % 12.34 C
1329 14-06-2021 14:40:00 25.3 C 46 % 12.85 C
1330 14-06-2021 14:45:00 25.4 C 43 % 11.92 C
1331 14-06-2021 14:50:00 25.7 C 44 % 12.54 C
1332 14-06-2021 14:55:00 25.8 C 44 % 12.63 C
1333 14-06-2021 15:00:00 25.9 C 43 % 12.37 C
1334 14-06-2021 15:05:00 26.2 C 42 % 12.28 C
1335 14-06-2021 15:10:00 26.3 C 42 % 12.37 C
1336 14-06-2021 15:15:00 26.4 C 42 % 12.46 C
1337 14-06-2021 15:20:00 26.7 C 43 % 13.09 C
1338 14-06-2021 15:25:00 27 C 42 % 13 C
1339 14-06-2021 15:30:00 27.3 C 41 % 12.9 C
1340 14-06-2021 15:35:00 27.8 C 41 % 13.34 C
1341 14-06-2021 15:40:00 28.2 C 39 % 12.93 C
1342 14-06-2021 15:45:00 28.4 C 37 % 12.31 C
1343 14-06-2021 15:50:00 28.5 C 37 % 12.4 C
1344 14-06-2021 15:55:00 28.4 C 38 % 12.72 C
1345 14-06-2021 16:00:00 28.4 C 39 % 13.11 C
1346 14-06-2021 16:05:00 28.7 C 38 % 12.98 C
1347 14-06-2021 16:10:00 29.2 C 43 % 15.33 C
1348 14-06-2021 16:15:00 29.5 C 36 % 12.86 C
1349 14-06-2021 16:20:00 29.4 C 37 % 13.19 C
1350 14-06-2021 16:25:00 29.3 C 37 % 13.1 C
Sensor: Nr:Datum:Temp:Feuchte:Taupunkt:
Aussen-T/F 1351 14-06-2021 16:30:00 29.4 C 40 % 14.39 C
1352 14-06-2021 16:35:00 30 C 41 % 15.31 C
1353 14-06-2021 16:40:00 30.5 C 36 % 13.74 C
1354 14-06-2021 16:45:00 30.8 C 37 % 14.43 C
1355 14-06-2021 16:50:00 30.6 C 35 % 13.39 C
1356 14-06-2021 16:55:00 30.4 C 36 % 13.65 C
1357 14-06-2021 17:00:00 30.2 C 35 % 13.04 C
1358 14-06-2021 17:05:00 30 C 37 % 13.72 C
1359 14-06-2021 17:10:00 30.1 C 36 % 13.39 C
1360 14-06-2021 17:15:00 30.2 C 37 % 13.9 C
1361 14-06-2021 17:20:00 30.4 C 36 % 13.65 C
1362 14-06-2021 17:25:00 30.4 C 36 % 13.65 C
1363 14-06-2021 17:30:00 30.3 C 35 % 13.13 C
1364 14-06-2021 17:35:00 30.2 C 34 % 12.6 C
1365 14-06-2021 17:40:00 30.4 C 35 % 13.22 C
1366 14-06-2021 17:45:00 30.4 C 34 % 12.78 C
1367 14-06-2021 17:50:00 30.3 C 34 % 12.69 C
1368 14-06-2021 17:55:00 30.1 C 33 % 12.06 C
1369 14-06-2021 18:00:00 30.2 C 35 % 13.04 C
1370 14-06-2021 18:05:00 30.3 C 34 % 12.69 C
1371 14-06-2021 18:10:00 30.2 C 36 % 13.48 C
1372 14-06-2021 18:15:00 30.2 C 35 % 13.04 C
1373 14-06-2021 18:20:00 30.2 C 36 % 13.48 C
1374 14-06-2021 18:25:00 30.2 C 34 % 12.6 C
1375 14-06-2021 18:30:00 30.1 C 35 % 12.96 C
Sensor: Nr:Datum:Temp:Feuchte:Taupunkt:
Aussen-T/F 1376 14-06-2021 18:35:00 30.1 C 35 % 12.96 C
1377 14-06-2021 18:40:00 30.4 C 35 % 13.22 C
1378 14-06-2021 18:45:00 30.5 C 33 % 12.41 C
1379 14-06-2021 18:50:00 30.2 C 33 % 12.15 C
1380 14-06-2021 18:55:00 29.8 C 34 % 12.25 C
1381 14-06-2021 19:00:00 29.5 C 35 % 12.43 C
1382 14-06-2021 19:05:00 29.3 C 36 % 12.68 C
1383 14-06-2021 19:10:00 29.2 C 37 % 13.02 C
1384 14-06-2021 19:15:00 29.1 C 37 % 12.93 C
1385 14-06-2021 19:20:00 29.1 C 38 % 13.34 C
1386 14-06-2021 19:25:00 29.1 C 38 % 13.34 C
1387 14-06-2021 19:30:00 29 C 37 % 12.84 C
1388 14-06-2021 19:35:00 28.9 C 37 % 12.75 C
1389 14-06-2021 19:40:00 28.8 C 38 % 13.07 C
1390 14-06-2021 19:45:00 28.7 C 38 % 12.98 C
1391 14-06-2021 19:50:00 28.6 C 39 % 13.29 C
1392 14-06-2021 19:55:00 28.3 C 40 % 13.41 C
1393 14-06-2021 20:00:00 28.2 C 40 % 13.32 C
1394 14-06-2021 20:05:00 28.2 C 50 % 16.79 C
1395 14-06-2021 20:10:00 28.2 C 50 % 16.79 C
1396 14-06-2021 20:15:00 28.1 C 51 % 17.01 C
1397 14-06-2021 20:20:00 27.8 C 50 % 16.42 C
1398 14-06-2021 20:25:00 27.6 C 52 % 16.86 C
1399 14-06-2021 20:30:00 27.3 C 52 % 16.58 C
1400 14-06-2021 20:35:00 26.9 C 52 % 16.21 C
Sensor: Nr:Datum:Temp:Feuchte:Taupunkt:
Aussen-T/F 1401 14-06-2021 20:40:00 26.7 C 53 % 16.33 C
1402 14-06-2021 20:45:00 26.3 C 53 % 15.96 C
1403 14-06-2021 20:50:00 25.9 C 54 % 15.88 C
1404 14-06-2021 20:55:00 25.4 C 54 % 15.42 C
1405 14-06-2021 21:00:00 25.1 C 55 % 15.43 C
1406 14-06-2021 21:05:00 24.7 C 56 % 15.33 C
1407 14-06-2021 21:10:00 24.3 C 57 % 15.24 C
1408 14-06-2021 21:15:00 24 C 57 % 14.96 C
1409 14-06-2021 21:20:00 23.6 C 59 % 15.12 C
1410 14-06-2021 21:25:00 23.3 C 60 % 15.1 C
1411 14-06-2021 21:30:00 22.9 C 60 % 14.73 C
1412 14-06-2021 21:35:00 22.6 C 62 % 14.95 C
1413 14-06-2021 21:40:00 22.2 C 62 % 14.58 C
1414 14-06-2021 21:45:00 21.9 C 64 % 14.78 C
1415 14-06-2021 21:50:00 21.6 C 65 % 14.74 C
1416 14-06-2021 21:55:00 21.2 C 66 % 14.6 C
1417 14-06-2021 22:00:00 20.9 C 67 % 14.55 C
1418 14-06-2021 22:05:00 20.6 C 69 % 14.71 C
1419 14-06-2021 22:10:00 20.3 C 69 % 14.43 C
1420 14-06-2021 22:15:00 20.1 C 70 % 14.46 C
1421 14-06-2021 22:20:00 19.9 C 71 % 14.49 C
1422 14-06-2021 22:25:00 19.7 C 71 % 14.3 C
1423 14-06-2021 22:30:00 19.4 C 72 % 14.22 C
1424 14-06-2021 22:35:00 19.3 C 73 % 14.34 C
1425 14-06-2021 22:40:00 19.1 C 74 % 14.36 C
Sensor: Nr:Datum:Temp:Feuchte:Taupunkt:
Aussen-T/F 1426 14-06-2021 22:45:00 18.9 C 74 % 14.17 C
1427 14-06-2021 22:50:00 18.8 C 75 % 14.28 C
1428 14-06-2021 22:55:00 18.7 C 76 % 14.39 C
1429 14-06-2021 23:00:00 18.4 C 75 % 13.89 C
1430 14-06-2021 23:05:00 18.3 C 76 % 14 C
1431 14-06-2021 23:10:00 18.2 C 77 % 14.1 C
1432 14-06-2021 23:15:00 18.1 C 77 % 14.01 C
1433 14-06-2021 23:20:00 17.9 C 77 % 13.81 C
1434 14-06-2021 23:25:00 17.8 C 77 % 13.72 C
1435 14-06-2021 23:30:00 17.7 C 78 % 13.82 C
1436 14-06-2021 23:35:00 17.6 C 78 % 13.72 C
1437 14-06-2021 23:40:00 17.5 C 79 % 13.82 C
1438 14-06-2021 23:45:00 17.3 C 79 % 13.63 C
1439 14-06-2021 23:50:00 17.3 C 79 % 13.63 C
1440 14-06-2021 23:55:00 17.2 C 80 % 13.72 C
1441 15-06-2021 00:00:00 17 C 79 % 13.33 C
1442 15-06-2021 00:05:00 16.9 C 79 % 13.24 C
1443 15-06-2021 00:10:00 16.8 C 80 % 13.33 C
1444 15-06-2021 00:15:00 16.7 C 80 % 13.23 C
1445 15-06-2021 00:20:00 16.6 C 81 % 13.33 C
1446 15-06-2021 00:25:00 16.5 C 81 % 13.23 C
1447 15-06-2021 00:30:00 16.5 C 82 % 13.42 C
1448 15-06-2021 00:35:00 16.4 C 82 % 13.32 C
1449 15-06-2021 00:40:00 16.4 C 82 % 13.32 C
1450 15-06-2021 00:45:00 16.3 C 82 % 13.22 C
Sensor: Nr:Datum:Temp:Feuchte:Taupunkt:
Aussen-T/F 1451 15-06-2021 00:50:00 16.3 C 82 % 13.22 C
1452 15-06-2021 00:55:00 16.2 C 82 % 13.13 C
1453 15-06-2021 01:00:00 16.2 C 83 % 13.31 C
1454 15-06-2021 01:05:00 16.1 C 83 % 13.21 C
1455 15-06-2021 01:10:00 16 C 83 % 13.12 C
1456 15-06-2021 01:15:00 16 C 84 % 13.3 C
1457 15-06-2021 01:20:00 15.9 C 84 % 13.2 C
1458 15-06-2021 01:25:00 15.9 C 84 % 13.2 C
1459 15-06-2021 01:30:00 15.9 C 85 % 13.38 C
1460 15-06-2021 01:35:00 15.9 C 85 % 13.38 C
1461 15-06-2021 01:40:00 15.8 C 84 % 13.1 C
1462 15-06-2021 01:45:00 15.7 C 85 % 13.19 C
1463 15-06-2021 01:50:00 15.7 C 85 % 13.19 C
1464 15-06-2021 01:55:00 15.6 C 85 % 13.09 C
1465 15-06-2021 02:00:00 15.5 C 85 % 12.99 C
1466 15-06-2021 02:05:00 15.4 C 85 % 12.89 C
1467 15-06-2021 02:10:00 15.3 C 86 % 12.97 C
1468 15-06-2021 02:15:00 15.3 C 86 % 12.97 C
1469 15-06-2021 02:20:00 15.3 C 86 % 12.97 C
1470 15-06-2021 02:25:00 15.3 C 87 % 13.15 C
1471 15-06-2021 02:30:00 15.3 C 86 % 12.97 C
1472 15-06-2021 02:35:00 15.2 C 86 % 12.88 C
1473 15-06-2021 02:40:00 15.2 C 87 % 13.05 C
1474 15-06-2021 02:45:00 15.1 C 87 % 12.95 C
1475 15-06-2021 02:50:00 15.1 C 87 % 12.95 C
Sensor: Nr:Datum:Temp:Feuchte:Taupunkt:
Aussen-T/F 1476 15-06-2021 02:55:00 14.9 C 87 % 12.76 C
1477 15-06-2021 03:00:00 14.9 C 87 % 12.76 C
1478 15-06-2021 03:05:00 14.8 C 88 % 12.83 C
1479 15-06-2021 03:10:00 14.8 C 87 % 12.66 C
1480 15-06-2021 03:15:00 14.7 C 87 % 12.56 C
1481 15-06-2021 03:20:00 14.6 C 88 % 12.64 C
1482 15-06-2021 03:25:00 14.6 C 88 % 12.64 C
1483 15-06-2021 03:30:00 14.6 C 88 % 12.64 C
1484 15-06-2021 03:35:00 14.5 C 88 % 12.54 C
1485 15-06-2021 03:40:00 14.4 C 89 % 12.61 C
1486 15-06-2021 03:45:00 14.4 C 89 % 12.61 C
1487 15-06-2021 03:50:00 14.5 C 89 % 12.71 C
1488 15-06-2021 03:55:00 14.5 C 90 % 12.88 C
1489 15-06-2021 04:00:00 14.6 C 89 % 12.81 C
1490 15-06-2021 04:05:00 14.5 C 89 % 12.71 C
1491 15-06-2021 04:10:00 14.4 C 89 % 12.61 C
1492 15-06-2021 04:15:00 14.3 C 90 % 12.68 C
1493 15-06-2021 04:20:00 14.3 C 90 % 12.68 C
1494 15-06-2021 04:25:00 14.3 C 90 % 12.68 C
1495 15-06-2021 04:30:00 14.2 C 90 % 12.58 C
1496 15-06-2021 04:35:00 14.1 C 90 % 12.49 C
1497 15-06-2021 04:40:00 14.1 C 90 % 12.49 C
1498 15-06-2021 04:45:00 14 C 91 % 12.56 C
1499 15-06-2021 04:50:00 13.9 C 91 % 12.46 C
1500 15-06-2021 04:55:00 13.9 C 91 % 12.46 C
Sensor: Nr:Datum:Temp:Feuchte:Taupunkt:
Aussen-T/F 1501 15-06-2021 05:00:00 13.8 C 91 % 12.36 C
1502 15-06-2021 05:05:00 13.8 C 91 % 12.36 C
1503 15-06-2021 05:10:00 13.8 C 92 % 12.52 C
1504 15-06-2021 05:15:00 13.8 C 92 % 12.52 C
1505 15-06-2021 05:20:00 13.8 C 92 % 12.52 C
1506 15-06-2021 05:25:00 13.7 C 92 % 12.42 C
1507 15-06-2021 05:30:00 13.7 C 92 % 12.42 C
1508 15-06-2021 05:35:00 13.7 C 92 % 12.42 C
1509 15-06-2021 05:40:00 13.7 C 92 % 12.42 C
1510 15-06-2021 05:45:00 13.7 C 92 % 12.42 C
1511 15-06-2021 05:50:00 13.7 C 92 % 12.42 C
1512 15-06-2021 05:55:00 13.7 C 92 % 12.42 C
1513 15-06-2021 06:00:00 13.7 C 92 % 12.42 C
1514 15-06-2021 06:05:00 13.7 C 93 % 12.59 C
1515 15-06-2021 06:10:00 13.7 C 93 % 12.59 C
1516 15-06-2021 06:15:00 13.7 C 93 % 12.59 C
1517 15-06-2021 06:20:00 13.7 C 93 % 12.59 C
1518 15-06-2021 06:25:00 13.8 C 93 % 12.69 C
1519 15-06-2021 06:30:00 13.8 C 93 % 12.69 C
1520 15-06-2021 06:35:00 13.9 C 93 % 12.79 C
1521 15-06-2021 06:40:00 14 C 93 % 12.89 C
1522 15-06-2021 06:45:00 14.1 C 94 % 13.15 C
1523 15-06-2021 06:50:00 14.2 C 93 % 13.08 C
1524 15-06-2021 06:55:00 14.3 C 94 % 13.35 C
1525 15-06-2021 07:00:00 14.4 C 94 % 13.45 C
Sensor: Nr:Datum:Temp:Feuchte:Taupunkt:
Aussen-T/F 1526 15-06-2021 07:05:00 14.6 C 94 % 13.65 C
1527 15-06-2021 07:10:00 14.6 C 94 % 13.65 C
1528 15-06-2021 07:15:00 14.7 C 94 % 13.74 C
1529 15-06-2021 07:20:00 14.8 C 94 % 13.84 C
1530 15-06-2021 07:25:00 14.9 C 93 % 13.78 C
1531 15-06-2021 07:30:00 15.1 C 93 % 13.98 C
1532 15-06-2021 07:35:00 15.2 C 93 % 14.08 C
1533 15-06-2021 07:40:00 15.3 C 93 % 14.18 C
1534 15-06-2021 07:45:00 15.3 C 93 % 14.18 C
1535 15-06-2021 07:50:00 15.4 C 92 % 14.11 C
1536 15-06-2021 07:55:00 15.6 C 92 % 14.31 C
1537 15-06-2021 08:00:00 15.8 C 91 % 14.33 C
1538 15-06-2021 08:05:00 15.9 C 90 % 14.26 C
1539 15-06-2021 08:10:00 16.1 C 89 % 14.29 C
1540 15-06-2021 08:15:00 16.3 C 89 % 14.48 C
1541 15-06-2021 08:20:00 16.4 C 88 % 14.41 C
1542 15-06-2021 08:25:00 16.7 C 88 % 14.7 C
1543 15-06-2021 08:30:00 16.9 C 87 % 14.72 C
1544 15-06-2021 08:35:00 17.1 C 87 % 14.92 C
1545 15-06-2021 08:40:00 17.2 C 87 % 15.02 C
1546 15-06-2021 08:45:00 17.4 C 85 % 14.85 C
1547 15-06-2021 08:50:00 17.6 C 84 % 14.87 C
1548 15-06-2021 08:55:00 17.8 C 84 % 15.06 C
1549 15-06-2021 09:00:00 18 C 83 % 15.07 C
1550 15-06-2021 09:05:00 18.2 C 82 % 15.08 C
Sensor: Nr:Datum:Temp:Feuchte:Taupunkt:
Aussen-T/F 1551 15-06-2021 09:10:00 18.4 C 82 % 15.27 C
1552 15-06-2021 09:15:00 18.7 C 82 % 15.57 C
1553 15-06-2021 09:20:00 18.9 C 82 % 15.76 C
1554 15-06-2021 09:25:00 19.2 C 81 % 15.86 C
1555 15-06-2021 09:30:00 19.4 C 79 % 15.66 C
1556 15-06-2021 09:35:00 19.6 C 78 % 15.66 C
1557 15-06-2021 09:40:00 19.8 C 77 % 15.65 C
1558 15-06-2021 09:45:00 19.9 C 76 % 15.54 C
1559 15-06-2021 09:50:00 19.9 C 76 % 15.54 C
1560 15-06-2021 09:55:00 20 C 76 % 15.64 C
1561 15-06-2021 10:00:00 20.1 C 76 % 15.74 C
1562 15-06-2021 10:05:00 20.1 C 76 % 15.74 C
1563 15-06-2021 10:10:00 20.2 C 76 % 15.83 C
1564 15-06-2021 10:15:00 20.3 C 75 % 15.72 C
1565 15-06-2021 10:20:00 20.5 C 74 % 15.71 C
1566 15-06-2021 10:25:00 20.7 C 74 % 15.9 C
1567 15-06-2021 10:30:00 20.9 C 74 % 16.09 C
1568 15-06-2021 10:35:00 21.3 C 73 % 16.26 C
1569 15-06-2021 10:40:00 21.7 C 71 % 16.21 C
1570 15-06-2021 10:45:00 21.9 C 71 % 16.4 C
1571 15-06-2021 10:50:00 22.2 C 71 % 16.69 C
1572 15-06-2021 10:55:00 22.2 C 70 % 16.47 C
1573 15-06-2021 11:00:00 22.3 C 70 % 16.56 C
1574 15-06-2021 11:05:00 22.4 C 70 % 16.66 C
1575 15-06-2021 11:10:00 22.6 C 69 % 16.62 C
Sensor: Nr:Datum:Temp:Feuchte:Taupunkt:
Aussen-T/F 1576 15-06-2021 11:15:00 22.7 C 68 % 16.49 C
1577 15-06-2021 11:20:00 22.6 C 67 % 16.16 C
1578 15-06-2021 11:25:00 22.6 C 69 % 16.62 C
1579 15-06-2021 11:30:00 22.7 C 69 % 16.72 C
1580 15-06-2021 11:35:00 22.8 C 69 % 16.82 C
1581 15-06-2021 11:40:00 22.9 C 69 % 16.91 C
1582 15-06-2021 11:45:00 23 C 68 % 16.78 C
1583 15-06-2021 11:50:00 23.1 C 69 % 17.1 C
1584 15-06-2021 11:55:00 23.2 C 69 % 17.2 C
1585 15-06-2021 12:00:00 23.3 C 67 % 16.83 C
1586 15-06-2021 12:05:00 23.3 C 67 % 16.83 C
1587 15-06-2021 12:10:00 23.4 C 67 % 16.92 C
1588 15-06-2021 12:15:00 23.5 C 66 % 16.78 C
1589 15-06-2021 12:20:00 23.6 C 66 % 16.88 C
1590 15-06-2021 12:25:00 23.7 C 66 % 16.97 C
1591 15-06-2021 12:30:00 23.9 C 65 % 16.92 C
1592 15-06-2021 12:35:00 24.1 C 65 % 17.11 C
1593 15-06-2021 12:40:00 24.2 C 65 % 17.2 C
1594 15-06-2021 12:45:00 24.3 C 64 % 17.05 C
1595 15-06-2021 12:50:00 24.6 C 63 % 17.09 C
1596 15-06-2021 12:55:00 24.7 C 62 % 16.93 C
1597 15-06-2021 13:00:00 24.8 C 63 % 17.28 C
1598 15-06-2021 13:05:00 24.9 C 63 % 17.37 C
1599 15-06-2021 13:10:00 24.9 C 61 % 16.86 C
1600 15-06-2021 13:15:00 25.2 C 62 % 17.4 C
Sensor: Nr:Datum:Temp:Feuchte:Taupunkt:
Aussen-T/F 1601 15-06-2021 13:20:00 25.3 C 61 % 17.24 C
1602 15-06-2021 13:25:00 25.4 C 60 % 17.07 C
1603 15-06-2021 13:30:00 25.6 C 61 % 17.52 C
1604 15-06-2021 13:35:00 25.8 C 59 % 17.18 C
1605 15-06-2021 13:40:00 25.8 C 57 % 16.64 C
1606 15-06-2021 13:45:00 25.8 C 56 % 16.36 C
1607 15-06-2021 13:50:00 25.8 C 57 % 16.64 C
1608 15-06-2021 13:55:00 25.9 C 56 % 16.45 C
1609 15-06-2021 14:00:00 26.1 C 57 % 16.92 C
1610 15-06-2021 14:05:00 26.1 C 56 % 16.64 C
1611 15-06-2021 14:10:00 26.2 C 57 % 17.01 C
1612 15-06-2021 14:15:00 26.4 C 54 % 16.34 C
1613 15-06-2021 14:20:00 26.4 C 53 % 16.05 C
1614 15-06-2021 14:25:00 26.3 C 56 % 16.82 C
1615 15-06-2021 14:30:00 26.3 C 56 % 16.82 C
1616 15-06-2021 14:35:00 26.4 C 55 % 16.63 C
1617 15-06-2021 14:40:00 26.7 C 53 % 16.33 C
1618 15-06-2021 14:45:00 26.8 C 52 % 16.12 C
1619 15-06-2021 14:50:00 26.9 C 52 % 16.21 C
1620 15-06-2021 14:55:00 26.9 C 53 % 16.51 C
1621 15-06-2021 15:00:00 27.2 C 50 % 15.87 C
1622 15-06-2021 15:05:00 27.3 C 51 % 16.28 C
1623 15-06-2021 15:10:00 27.4 C 49 % 15.74 C
1624 15-06-2021 15:15:00 27.5 C 50 % 16.15 C
1625 15-06-2021 15:20:00 27.6 C 49 % 15.92 C
Sensor: Nr:Datum:Temp:Feuchte:Taupunkt:
Aussen-T/F 1626 15-06-2021 15:25:00 27.7 C 51 % 16.64 C
1627 15-06-2021 15:30:00 27.8 C 51 % 16.73 C
1628 15-06-2021 15:35:00 28.2 C 50 % 16.79 C
1629 15-06-2021 15:40:00 28.3 C 50 % 16.88 C
1630 15-06-2021 15:45:00 28.5 C 49 % 16.75 C
1631 15-06-2021 15:50:00 28.6 C 49 % 16.84 C
1632 15-06-2021 15:55:00 28.3 C 50 % 16.88 C
1633 15-06-2021 16:00:00 28.3 C 49 % 16.56 C
1634 15-06-2021 16:05:00 28.4 C 49 % 16.65 C
1635 15-06-2021 16:10:00 28.7 C 50 % 17.25 C
1636 15-06-2021 16:15:00 28.8 C 48 % 16.69 C
1637 15-06-2021 16:20:00 28.9 C 49 % 17.11 C
1638 15-06-2021 16:25:00 29 C 47 % 16.55 C
1639 15-06-2021 16:30:00 29 C 46 % 16.21 C
1640 15-06-2021 16:35:00 28.9 C 47 % 16.45 C
1641 15-06-2021 16:40:00 29 C 48 % 16.88 C
1642 15-06-2021 16:45:00 29.1 C 45 % 15.95 C
1643 15-06-2021 16:50:00 29.1 C 46 % 16.3 C
1644 15-06-2021 16:55:00 29.2 C 45 % 16.04 C
1645 15-06-2021 17:00:00 29.1 C 45 % 15.95 C
1646 15-06-2021 17:05:00 29.1 C 47 % 16.64 C
1647 15-06-2021 17:10:00 29.2 C 46 % 16.39 C
1648 15-06-2021 17:15:00 29.3 C 45 % 16.13 C
1649 15-06-2021 17:20:00 29.4 C 45 % 16.23 C
1650 15-06-2021 17:25:00 29.3 C 46 % 16.48 C
Sensor: Nr:Datum:Temp:Feuchte:Taupunkt:
Aussen-T/F 1651 15-06-2021 17:30:00 29.1 C 46 % 16.3 C
1652 15-06-2021 17:35:00 28.9 C 46 % 16.12 C
1653 15-06-2021 17:40:00 28.8 C 47 % 16.36 C
1654 15-06-2021 17:45:00 28.9 C 47 % 16.45 C
1655 15-06-2021 17:50:00 29 C 47 % 16.55 C
1656 15-06-2021 17:55:00 28.9 C 49 % 17.11 C
1657 15-06-2021 18:00:00 28.9 C 49 % 17.11 C
1658 15-06-2021 18:05:00 28.8 C 48 % 16.69 C
1659 15-06-2021 18:10:00 28.9 C 49 % 17.11 C
1660 15-06-2021 18:15:00 28.8 C 46 % 16.03 C
1661 15-06-2021 18:20:00 28.8 C 45 % 15.68 C
1662 15-06-2021 18:25:00 28.9 C 48 % 16.79 C
1663 15-06-2021 18:30:00 28.9 C 47 % 16.45 C
1664 15-06-2021 18:35:00 28.8 C 49 % 17.02 C
1665 15-06-2021 18:40:00 28.7 C 47 % 16.27 C
1666 15-06-2021 18:45:00 28.5 C 48 % 16.42 C
1667 15-06-2021 18:50:00 28.4 C 48 % 16.33 C
1668 15-06-2021 18:55:00 28.3 C 49 % 16.56 C
1669 15-06-2021 19:00:00 28.1 C 50 % 16.7 C
1670 15-06-2021 19:05:00 27.9 C 50 % 16.51 C
1671 15-06-2021 19:10:00 27.8 C 51 % 16.73 C
1672 15-06-2021 19:15:00 27.7 C 51 % 16.64 C
1673 15-06-2021 19:20:00 27.7 C 51 % 16.64 C
1674 15-06-2021 19:25:00 27.6 C 52 % 16.86 C
1675 15-06-2021 19:30:00 27.4 C 52 % 16.67 C
Sensor: Nr:Datum:Temp:Feuchte:Taupunkt:
Aussen-T/F 1676 15-06-2021 19:35:00 27.3 C 53 % 16.88 C
1677 15-06-2021 19:40:00 27.2 C 53 % 16.79 C
1678 15-06-2021 19:45:00 27.2 C 54 % 17.08 C
1679 15-06-2021 19:50:00 27.1 C 55 % 17.28 C
1680 15-06-2021 19:55:00 27 C 54 % 16.9 C
1681 15-06-2021 20:00:00 26.9 C 55 % 17.09 C
1682 15-06-2021 20:05:00 26.8 C 54 % 16.71 C
1683 15-06-2021 20:10:00 26.7 C 56 % 17.19 C
1684 15-06-2021 20:15:00 26.7 C 55 % 16.91 C
1685 15-06-2021 20:20:00 26.6 C 55 % 16.82 C
1686 15-06-2021 20:25:00 26.6 C 56 % 17.1 C
1687 15-06-2021 20:30:00 26.5 C 56 % 17.01 C
1688 15-06-2021 20:35:00 26.4 C 56 % 16.92 C
1689 15-06-2021 20:40:00 26.3 C 56 % 16.82 C
1690 15-06-2021 20:45:00 26.2 C 56 % 16.73 C
1691 15-06-2021 20:50:00 26.1 C 59 % 17.46 C
1692 15-06-2021 20:55:00 26 C 63 % 18.41 C
1693 15-06-2021 21:00:00 25.8 C 62 % 17.97 C
1694 15-06-2021 21:05:00 25.5 C 64 % 18.19 C
1695 15-06-2021 21:10:00 25.2 C 65 % 18.15 C
1696 15-06-2021 21:15:00 24.8 C 66 % 18.01 C
1697 15-06-2021 21:20:00 24.3 C 67 % 17.78 C
1698 15-06-2021 21:25:00 23.9 C 68 % 17.63 C
1699 15-06-2021 21:30:00 23.4 C 70 % 17.62 C
1700 15-06-2021 21:35:00 23.2 C 71 % 17.65 C
Sensor: Nr:Datum:Temp:Feuchte:Taupunkt:
Aussen-T/F 1701 15-06-2021 21:40:00 22.8 C 71 % 17.27 C
1702 15-06-2021 21:45:00 22.6 C 72 % 17.3 C
1703 15-06-2021 21:50:00 22.4 C 72 % 17.1 C
1704 15-06-2021 21:55:00 22.2 C 72 % 16.91 C
1705 15-06-2021 22:00:00 22.1 C 73 % 17.03 C
1706 15-06-2021 22:05:00 21.8 C 73 % 16.75 C
1707 15-06-2021 22:10:00 21.7 C 74 % 16.86 C
1708 15-06-2021 22:15:00 21.6 C 74 % 16.77 C
1709 15-06-2021 22:20:00 21.4 C 74 % 16.57 C
1710 15-06-2021 22:25:00 21.3 C 75 % 16.69 C
1711 15-06-2021 22:30:00 21.2 C 75 % 16.59 C
1712 15-06-2021 22:35:00 21.1 C 76 % 16.7 C
1713 15-06-2021 22:40:00 20.9 C 77 % 16.72 C
1714 15-06-2021 22:45:00 20.8 C 77 % 16.62 C
1715 15-06-2021 22:50:00 20.7 C 78 % 16.73 C
1716 15-06-2021 22:55:00 20.6 C 78 % 16.63 C
1717 15-06-2021 23:00:00 20.6 C 78 % 16.63 C
1718 15-06-2021 23:05:00 20.5 C 78 % 16.53 C
1719 15-06-2021 23:10:00 20.4 C 79 % 16.64 C
1720 15-06-2021 23:15:00 20.4 C 79 % 16.64 C
1721 15-06-2021 23:20:00 20.3 C 79 % 16.54 C
1722 15-06-2021 23:25:00 20.3 C 79 % 16.54 C
1723 15-06-2021 23:30:00 20.2 C 80 % 16.64 C
1724 15-06-2021 23:35:00 20.1 C 80 % 16.54 C
1725 15-06-2021 23:40:00 20 C 80 % 16.44 C
Sensor: Nr:Datum:Temp:Feuchte:Taupunkt:
Aussen-T/F 1726 15-06-2021 23:45:00 19.9 C 81 % 16.54 C
1727 15-06-2021 23:50:00 19.8 C 81 % 16.45 C
1728 15-06-2021 23:55:00 19.7 C 81 % 16.35 C
1729 16-06-2021 00:00:00 19.6 C 82 % 16.44 C
1730 16-06-2021 00:05:00 19.6 C 82 % 16.44 C
1731 16-06-2021 00:10:00 19.5 C 82 % 16.35 C
1732 16-06-2021 00:15:00 19.4 C 82 % 16.25 C
1733 16-06-2021 00:20:00 19.3 C 83 % 16.34 C
1734 16-06-2021 00:25:00 19.2 C 83 % 16.24 C
1735 16-06-2021 00:30:00 19.1 C 83 % 16.15 C
1736 16-06-2021 00:35:00 18.9 C 84 % 16.14 C
1737 16-06-2021 00:40:00 18.8 C 84 % 16.04 C
1738 16-06-2021 00:45:00 18.7 C 84 % 15.94 C
1739 16-06-2021 00:50:00 18.5 C 85 % 15.93 C
1740 16-06-2021 00:55:00 18.4 C 85 % 15.83 C
1741 16-06-2021 01:00:00 18.3 C 86 % 15.92 C
1742 16-06-2021 01:05:00 18.2 C 86 % 15.82 C
1743 16-06-2021 01:10:00 18.1 C 86 % 15.72 C
1744 16-06-2021 01:15:00 18.1 C 86 % 15.72 C
1745 16-06-2021 01:20:00 18 C 87 % 15.8 C
1746 16-06-2021 01:25:00 17.9 C 87 % 15.71 C
1747 16-06-2021 01:30:00 17.9 C 87 % 15.71 C
1748 16-06-2021 01:35:00 17.8 C 87 % 15.61 C
1749 16-06-2021 01:40:00 17.8 C 87 % 15.61 C
1750 16-06-2021 01:45:00 17.7 C 87 % 15.51 C
Sensor: Nr:Datum:Temp:Feuchte:Taupunkt:
Aussen-T/F 1751 16-06-2021 01:50:00 17.7 C 88 % 15.69 C
1752 16-06-2021 01:55:00 17.6 C 88 % 15.59 C
1753 16-06-2021 02:00:00 17.6 C 88 % 15.59 C
1754 16-06-2021 02:05:00 17.5 C 88 % 15.49 C
1755 16-06-2021 02:10:00 17.4 C 88 % 15.39 C
1756 16-06-2021 02:15:00 17.4 C 88 % 15.39 C
1757 16-06-2021 02:20:00 17.3 C 88 % 15.29 C
1758 16-06-2021 02:25:00 17.3 C 89 % 15.47 C
1759 16-06-2021 02:30:00 17.2 C 89 % 15.37 C
1760 16-06-2021 02:35:00 17.2 C 89 % 15.37 C
1761 16-06-2021 02:40:00 17.1 C 89 % 15.27 C
1762 16-06-2021 02:45:00 17.1 C 89 % 15.27 C
1763 16-06-2021 02:50:00 17.1 C 89 % 15.27 C
1764 16-06-2021 02:55:00 17.1 C 89 % 15.27 C
1765 16-06-2021 03:00:00 17 C 90 % 15.35 C
1766 16-06-2021 03:05:00 16.9 C 90 % 15.25 C
1767 16-06-2021 03:10:00 16.9 C 90 % 15.25 C
1768 16-06-2021 03:15:00 16.8 C 90 % 15.15 C
1769 16-06-2021 03:20:00 16.8 C 90 % 15.15 C
1770 16-06-2021 03:25:00 16.7 C 90 % 15.05 C
1771 16-06-2021 03:30:00 16.7 C 90 % 15.05 C
1772 16-06-2021 03:35:00 16.7 C 90 % 15.05 C
1773 16-06-2021 03:40:00 16.6 C 90 % 14.95 C
1774 16-06-2021 03:45:00 16.6 C 90 % 14.95 C
1775 16-06-2021 03:50:00 16.5 C 90 % 14.85 C
Sensor: Nr:Datum:Temp:Feuchte:Taupunkt:
Aussen-T/F 1776 16-06-2021 03:55:00 16.4 C 91 % 14.93 C
1777 16-06-2021 04:00:00 16.4 C 91 % 14.93 C
1778 16-06-2021 04:05:00 16.3 C 91 % 14.83 C
1779 16-06-2021 04:10:00 16.3 C 91 % 14.83 C
1780 16-06-2021 04:15:00 16.3 C 91 % 14.83 C
1781 16-06-2021 04:20:00 16.2 C 91 % 14.73 C
1782 16-06-2021 04:25:00 16.2 C 91 % 14.73 C
1783 16-06-2021 04:30:00 16.2 C 91 % 14.73 C
1784 16-06-2021 04:35:00 16.1 C 91 % 14.63 C
1785 16-06-2021 04:40:00 16.1 C 91 % 14.63 C
1786 16-06-2021 04:45:00 16 C 92 % 14.7 C
1787 16-06-2021 04:50:00 16 C 92 % 14.7 C
1788 16-06-2021 04:55:00 15.9 C 92 % 14.6 C
1789 16-06-2021 05:00:00 15.9 C 92 % 14.6 C
1790 16-06-2021 05:05:00 15.9 C 92 % 14.6 C
1791 16-06-2021 05:10:00 15.8 C 92 % 14.5 C
1792 16-06-2021 05:15:00 15.8 C 92 % 14.5 C
1793 16-06-2021 05:20:00 15.8 C 92 % 14.5 C
1794 16-06-2021 05:25:00 15.8 C 92 % 14.5 C
1795 16-06-2021 05:30:00 15.7 C 92 % 14.4 C
1796 16-06-2021 05:35:00 15.7 C 92 % 14.4 C
1797 16-06-2021 05:40:00 15.7 C 92 % 14.4 C
1798 16-06-2021 05:45:00 15.7 C 93 % 14.57 C
1799 16-06-2021 05:50:00 15.7 C 93 % 14.57 C
1800 16-06-2021 05:55:00 15.7 C 93 % 14.57 C
Sensor: Nr:Datum:Temp:Feuchte:Taupunkt:
Aussen-T/F 1801 16-06-2021 06:00:00 15.7 C 93 % 14.57 C
1802 16-06-2021 06:05:00 15.7 C 93 % 14.57 C
1803 16-06-2021 06:10:00 15.7 C 93 % 14.57 C
1804 16-06-2021 06:15:00 15.7 C 93 % 14.57 C
1805 16-06-2021 06:20:00 15.8 C 94 % 14.84 C
1806 16-06-2021 06:25:00 15.8 C 94 % 14.84 C
1807 16-06-2021 06:30:00 15.9 C 94 % 14.94 C
1808 16-06-2021 06:35:00 16 C 94 % 15.03 C
1809 16-06-2021 06:40:00 16.1 C 94 % 15.13 C
1810 16-06-2021 06:45:00 16.2 C 94 % 15.23 C
1811 16-06-2021 06:50:00 16.3 C 94 % 15.33 C
1812 16-06-2021 06:55:00 16.4 C 94 % 15.43 C
1813 16-06-2021 07:00:00 16.4 C 94 % 15.43 C
1814 16-06-2021 07:05:00 16.6 C 94 % 15.63 C
1815 16-06-2021 07:10:00 16.7 C 94 % 15.73 C
1816 16-06-2021 07:15:00 16.8 C 95 % 15.99 C
1817 16-06-2021 07:20:00 16.9 C 94 % 15.93 C
1818 16-06-2021 07:25:00 17 C 94 % 16.03 C
1819 16-06-2021 07:30:00 17.1 C 94 % 16.13 C
1820 16-06-2021 07:35:00 17.2 C 94 % 16.23 C
1821 16-06-2021 07:40:00 17.3 C 94 % 16.33 C
1822 16-06-2021 07:45:00 17.3 C 94 % 16.33 C
1823 16-06-2021 07:50:00 17.4 C 94 % 16.42 C
1824 16-06-2021 07:55:00 17.5 C 94 % 16.52 C
1825 16-06-2021 08:00:00 17.6 C 94 % 16.62 C
Sensor: Nr:Datum:Temp:Feuchte:Taupunkt:
Aussen-T/F 1826 16-06-2021 08:05:00 17.7 C 94 % 16.72 C
1827 16-06-2021 08:10:00 17.7 C 94 % 16.72 C
1828 16-06-2021 08:15:00 17.8 C 93 % 16.65 C
1829 16-06-2021 08:20:00 17.8 C 93 % 16.65 C
1830 16-06-2021 08:25:00 17.9 C 93 % 16.75 C
1831 16-06-2021 08:30:00 18 C 93 % 16.85 C
1832 16-06-2021 08:35:00 18.1 C 92 % 16.78 C
1833 16-06-2021 08:40:00 18.2 C 91 % 16.71 C
1834 16-06-2021 08:45:00 18.4 C 91 % 16.9 C
1835 16-06-2021 08:50:00 18.6 C 90 % 16.93 C
1836 16-06-2021 08:55:00 18.7 C 90 % 17.03 C
1837 16-06-2021 09:00:00 18.9 C 90 % 17.22 C
1838 16-06-2021 09:05:00 19 C 88 % 16.97 C
1839 16-06-2021 09:10:00 19.2 C 87 % 16.98 C
1840 16-06-2021 09:15:00 19.4 C 87 % 17.18 C
1841 16-06-2021 09:20:00 19.7 C 85 % 17.11 C
1842 16-06-2021 09:25:00 20 C 85 % 17.4 C
1843 16-06-2021 09:30:00 20.3 C 84 % 17.51 C
1844 16-06-2021 09:35:00 20.5 C 84 % 17.7 C
1845 16-06-2021 09:40:00 20.7 C 83 % 17.71 C
1846 16-06-2021 09:45:00 20.9 C 81 % 17.52 C
1847 16-06-2021 09:50:00 21.3 C 80 % 17.71 C
1848 16-06-2021 09:55:00 21.7 C 80 % 18.1 C
1849 16-06-2021 10:00:00 21.8 C 79 % 18 C
1850 16-06-2021 10:05:00 22 C 79 % 18.19 C
Sensor: Nr:Datum:Temp:Feuchte:Taupunkt:
Aussen-T/F 1851 16-06-2021 10:10:00 22.2 C 79 % 18.38 C
1852 16-06-2021 10:15:00 22.3 C 78 % 18.28 C
1853 16-06-2021 10:20:00 22.6 C 78 % 18.57 C
1854 16-06-2021 10:25:00 23 C 77 % 18.75 C
1855 16-06-2021 10:30:00 23.3 C 77 % 19.04 C
1856 16-06-2021 10:35:00 23.7 C 75 % 19 C
1857 16-06-2021 10:40:00 24 C 73 % 18.86 C
1858 16-06-2021 10:45:00 24.3 C 74 % 19.37 C
1859 16-06-2021 10:50:00 24.6 C 75 % 19.87 C
1860 16-06-2021 10:55:00 24.7 C 72 % 19.31 C
1861 16-06-2021 11:00:00 24.8 C 72 % 19.41 C
1862 16-06-2021 11:05:00 24.9 C 73 % 19.72 C
1863 16-06-2021 11:10:00 25.1 C 71 % 19.47 C
1864 16-06-2021 11:15:00 25.2 C 70 % 19.34 C
1865 16-06-2021 11:20:00 25.2 C 69 % 19.11 C
1866 16-06-2021 11:25:00 25.2 C 70 % 19.34 C
1867 16-06-2021 11:30:00 25.3 C 68 % 18.97 C
1868 16-06-2021 11:35:00 25.4 C 72 % 19.98 C
1869 16-06-2021 11:40:00 25.6 C 72 % 20.17 C
1870 16-06-2021 11:45:00 25.6 C 68 % 19.25 C
1871 16-06-2021 11:50:00 25.8 C 67 % 19.2 C
1872 16-06-2021 11:55:00 26 C 68 % 19.63 C
1873 16-06-2021 12:00:00 26.1 C 66 % 19.25 C
1874 16-06-2021 12:05:00 26.3 C 65 % 19.19 C
1875 16-06-2021 12:10:00 26.4 C 65 % 19.29 C
Sensor: Nr:Datum:Temp:Feuchte:Taupunkt:
Aussen-T/F 1876 16-06-2021 12:15:00 26.6 C 70 % 20.67 C
1877 16-06-2021 12:20:00 26.6 C 64 % 19.23 C
1878 16-06-2021 12:25:00 26.7 C 64 % 19.32 C
1879 16-06-2021 12:30:00 26.9 C 61 % 18.74 C
1880 16-06-2021 12:35:00 27.2 C 59 % 18.49 C
1881 16-06-2021 12:40:00 27.4 C 57 % 18.13 C
1882 16-06-2021 12:45:00 27.6 C 55 % 17.74 C
1883 16-06-2021 12:50:00 27.6 C 56 % 18.03 C
1884 16-06-2021 12:55:00 27.7 C 56 % 18.12 C
1885 16-06-2021 13:00:00 27.9 C 54 % 17.73 C
1886 16-06-2021 13:05:00 28.1 C 53 % 17.62 C
1887 16-06-2021 13:10:00 28.3 C 52 % 17.5 C
1888 16-06-2021 13:15:00 28.4 C 51 % 17.29 C
1889 16-06-2021 13:20:00 28.6 C 50 % 17.16 C
1890 16-06-2021 13:25:00 28.7 C 48 % 16.6 C
1891 16-06-2021 13:30:00 28.8 C 48 % 16.69 C
1892 16-06-2021 13:35:00 28.8 C 46 % 16.03 C
1893 16-06-2021 13:40:00 28.9 C 44 % 15.42 C
1894 16-06-2021 13:45:00 29.2 C 44 % 15.69 C
1895 16-06-2021 13:50:00 29.2 C 44 % 15.69 C
1896 16-06-2021 13:55:00 29.1 C 43 % 15.24 C
1897 16-06-2021 14:00:00 29.2 C 44 % 15.69 C
1898 16-06-2021 14:05:00 29.3 C 42 % 15.06 C
1899 16-06-2021 14:10:00 29.3 C 42 % 15.06 C
1900 16-06-2021 14:15:00 29.4 C 41 % 14.77 C
Sensor: Nr:Datum:Temp:Feuchte:Taupunkt:
Aussen-T/F 1901 16-06-2021 14:20:00 29.6 C 43 % 15.69 C
1902 16-06-2021 14:25:00 29.7 C 43 % 15.78 C
1903 16-06-2021 14:30:00 29.8 C 43 % 15.87 C
1904 16-06-2021 14:35:00 29.8 C 41 % 15.13 C
1905 16-06-2021 14:40:00 29.8 C 43 % 15.87 C
1906 16-06-2021 14:45:00 29.8 C 45 % 16.59 C
1907 16-06-2021 14:50:00 29.8 C 45 % 16.59 C
1908 16-06-2021 14:55:00 29.9 C 43 % 15.96 C
1909 16-06-2021 15:00:00 30 C 45 % 16.77 C
1910 16-06-2021 15:05:00 30.1 C 42 % 15.77 C
1911 16-06-2021 15:10:00 30.2 C 45 % 16.95 C
1912 16-06-2021 15:15:00 30.3 C 43 % 16.32 C
1913 16-06-2021 15:20:00 30.4 C 43 % 16.41 C
1914 16-06-2021 15:25:00 30.5 C 47 % 17.91 C
1915 16-06-2021 15:30:00 30.8 C 40 % 15.64 C
1916 16-06-2021 15:35:00 31.1 C 43 % 17.04 C
1917 16-06-2021 15:40:00 31.4 C 42 % 16.94 C
1918 16-06-2021 15:45:00 31.8 C 41 % 16.92 C
1919 16-06-2021 15:50:00 32.1 C 41 % 17.18 C
1920 16-06-2021 15:55:00 32.3 C 43 % 18.12 C
1921 16-06-2021 16:00:00 32.4 C 39 % 16.66 C
1922 16-06-2021 16:05:00 32.6 C 44 % 18.75 C
1923 16-06-2021 16:10:00 32.4 C 40 % 17.06 C
1924 16-06-2021 16:15:00 32.4 C 42 % 17.83 C
1925 16-06-2021 16:20:00 32.4 C 43 % 18.21 C
Sensor: Nr:Datum:Temp:Feuchte:Taupunkt:
Aussen-T/F 1926 16-06-2021 16:25:00 32.4 C 43 % 18.21 C
1927 16-06-2021 16:30:00 32.6 C 40 % 17.24 C
1928 16-06-2021 16:35:00 32.6 C 39 % 16.84 C
1929 16-06-2021 16:40:00 32.7 C 40 % 17.33 C
1930 16-06-2021 16:45:00 32.8 C 40 % 17.42 C
1931 16-06-2021 16:50:00 33.1 C 41 % 18.08 C
1932 16-06-2021 16:55:00 33.3 C 41 % 18.25 C
1933 16-06-2021 17:00:00 33.4 C 43 % 19.11 C
1934 16-06-2021 17:05:00 33.3 C 39 % 17.46 C
1935 16-06-2021 17:10:00 33.2 C 41 % 18.17 C
1936 16-06-2021 17:15:00 33.4 C 42 % 18.73 C
1937 16-06-2021 17:20:00 33.6 C 43 % 19.28 C
1938 16-06-2021 17:25:00 33.8 C 41 % 18.7 C
1939 16-06-2021 17:30:00 33.7 C 40 % 18.22 C
1940 16-06-2021 17:35:00 33.4 C 40 % 17.95 C
1941 16-06-2021 17:40:00 33.3 C 39 % 17.46 C
1942 16-06-2021 17:45:00 33.3 C 43 % 19.02 C
1943 16-06-2021 17:50:00 33.3 C 39 % 17.46 C
1944 16-06-2021 17:55:00 33.2 C 39 % 17.37 C
1945 16-06-2021 18:00:00 33.2 C 39 % 17.37 C
1946 16-06-2021 18:05:00 33.1 C 40 % 17.68 C
1947 16-06-2021 18:10:00 32.8 C 40 % 17.42 C
1948 16-06-2021 18:15:00 32.5 C 43 % 18.3 C
1949 16-06-2021 18:20:00 32.6 C 46 % 19.47 C
1950 16-06-2021 18:25:00 32.6 C 44 % 18.75 C
Sensor: Nr:Datum:Temp:Feuchte:Taupunkt:
Aussen-T/F 1951 16-06-2021 18:30:00 32.7 C 43 % 18.48 C
1952 16-06-2021 18:35:00 32.6 C 45 % 19.12 C
1953 16-06-2021 18:40:00 32.6 C 43 % 18.39 C
1954 16-06-2021 18:45:00 32.4 C 42 % 17.83 C
1955 16-06-2021 18:50:00 32.4 C 43 % 18.21 C
1956 16-06-2021 18:55:00 32.3 C 50 % 20.54 C
1957 16-06-2021 19:00:00 32.2 C 42 % 17.65 C
1958 16-06-2021 19:05:00 32.1 C 47 % 19.36 C
1959 16-06-2021 19:10:00 31.8 C 47 % 19.09 C
1960 16-06-2021 19:15:00 31.8 C 46 % 18.74 C
1961 16-06-2021 19:20:00 31.8 C 53 % 21.03 C
1962 16-06-2021 19:25:00 31.7 C 45 % 18.3 C
1963 16-06-2021 19:30:00 31.6 C 51 % 20.22 C
1964 16-06-2021 19:35:00 31.5 C 46 % 18.47 C
1965 16-06-2021 19:40:00 31.4 C 55 % 21.26 C
1966 16-06-2021 19:45:00 31.3 C 56 % 21.47 C
1967 16-06-2021 19:50:00 31.1 C 53 % 20.39 C
1968 16-06-2021 19:55:00 30.9 C 56 % 21.09 C
1969 16-06-2021 20:00:00 30.7 C 56 % 20.91 C
1970 16-06-2021 20:05:00 30.3 C 57 % 20.83 C
1971 16-06-2021 20:10:00 29.8 C 58 % 20.64 C
1972 16-06-2021 20:15:00 29.4 C 59 % 20.55 C
1973 16-06-2021 20:20:00 29 C 59 % 20.17 C
1974 16-06-2021 20:25:00 28.6 C 59 % 19.8 C
1975 16-06-2021 20:30:00 28.2 C 60 % 19.69 C
Sensor: Nr:Datum:Temp:Feuchte:Taupunkt:
Aussen-T/F 1976 16-06-2021 20:35:00 27.8 C 60 % 19.32 C
1977 16-06-2021 20:40:00 27.3 C 61 % 19.12 C
1978 16-06-2021 20:45:00 26.9 C 62 % 19 C
1979 16-06-2021 20:50:00 26.6 C 62 % 18.72 C
1980 16-06-2021 20:55:00 26.3 C 63 % 18.69 C
1981 16-06-2021 21:00:00 26.2 C 63 % 18.6 C
1982 16-06-2021 21:05:00 26 C 63 % 18.41 C
1983 16-06-2021 21:10:00 25.8 C 65 % 18.72 C
1984 16-06-2021 21:15:00 25.6 C 65 % 18.53 C
1985 16-06-2021 21:20:00 25.3 C 64 % 18 C
1986 16-06-2021 21:25:00 25.1 C 65 % 18.06 C
1987 16-06-2021 21:30:00 24.9 C 65 % 17.87 C
1988 16-06-2021 21:35:00 24.7 C 66 % 17.92 C
1989 16-06-2021 21:40:00 24.4 C 66 % 17.64 C
1990 16-06-2021 21:45:00 24.3 C 66 % 17.54 C
1991 16-06-2021 21:50:00 24.1 C 66 % 17.35 C
1992 16-06-2021 21:55:00 23.9 C 66 % 17.16 C
1993 16-06-2021 22:00:00 23.8 C 67 % 17.3 C
1994 16-06-2021 22:05:00 23.7 C 67 % 17.21 C
1995 16-06-2021 22:10:00 23.6 C 67 % 17.11 C
1996 16-06-2021 22:15:00 23.5 C 67 % 17.02 C
1997 16-06-2021 22:20:00 23.4 C 67 % 16.92 C
1998 16-06-2021 22:25:00 23.3 C 67 % 16.83 C
1999 16-06-2021 22:30:00 23.2 C 67 % 16.73 C
2000 16-06-2021 22:35:00 23.1 C 67 % 16.64 C
Sensor: Nr:Datum:Temp:Feuchte:Taupunkt:
Aussen-T/F 2001 16-06-2021 22:40:00 23 C 66 % 16.31 C
2002 16-06-2021 22:45:00 22.9 C 66 % 16.21 C
2003 16-06-2021 22:50:00 22.9 C 66 % 16.21 C
2004 16-06-2021 22:55:00 22.8 C 66 % 16.12 C
2005 16-06-2021 23:00:00 22.8 C 66 % 16.12 C
2006 16-06-2021 23:05:00 22.7 C 66 % 16.02 C
2007 16-06-2021 23:10:00 22.7 C 66 % 16.02 C
2008 16-06-2021 23:15:00 22.6 C 66 % 15.93 C
2009 16-06-2021 23:20:00 22.6 C 66 % 15.93 C
2010 16-06-2021 23:25:00 22.4 C 66 % 15.74 C
2011 16-06-2021 23:30:00 22.4 C 67 % 15.97 C
2012 16-06-2021 23:35:00 22.3 C 67 % 15.88 C
2013 16-06-2021 23:40:00 22.3 C 68 % 16.11 C
2014 16-06-2021 23:45:00 22.2 C 68 % 16.01 C
2015 16-06-2021 23:50:00 22.1 C 68 % 15.92 C
2016 16-06-2021 23:55:00 22 C 68 % 15.82 C

Legende:
   Min
   Max


Maximal/Minimal-Werte vom 10.06.2021 - 16.06.2021

Sensor Min Max Avg
Temp
(Aussen-T/F)
9.8 °C
14-06-2021  05:40:00
33.8 °C
16-06-2021  17:25:00
20.34 °C
Feuchte
(Aussen-T/F)
33 %
14-06-2021  17:55:00
96 %
14-06-2021  08:25:00
71.01 %
Taupunkt
(Aussen-T/F)
8.72 C
14-06-2021  05:40:00
21.47 C
16-06-2021  19:45:00
14.18 C

Die Daten stammen von einer Davis Vantage Pro 2 Wetter-Station und werden unter Linux mit der Software wview2wettercgi und aufbereitet. Alle Angaben erfolgen ohne Gewähr für ihre Vollständigkeit oder Richtigkeit.
Kontakt: Rainer Krienke krienke@uni-koblenz.de . Meine Webseiten an der Uni Koblenz oder privat.
Version: $Revision: 0.78 $